<?xml version="1.0" encoding="UTF-8" standalone="no" ?>
<gpx xmlns="http://www.topografix.com/GPX/1/1" xmlns:xsi="http://www.w3.org/2001/XMLSchema-instance" xsi:schemaLocation="http://www.topografix.com/GPX/1/1 http://www.topografix.com/GPX/1/1/gpx.xsd" version="1.1" creator="VisuGPX - https://www.visugpx.com">
  <metadata>
    <name>Villefort - Col de Rabusat</name>
    <desc><![CDATA[Un aller-retour pour le plaisir des yeux et des mollets.]]></desc>
  </metadata>
  <trk>
    <name><![CDATA[Villefort_Rabusat_2017-09-29 09:08]]></name>
    <desc><![CDATA[<p>Heure de départ: 09/29/2017 09:08<br/>Heure d'arrivée: 09/29/2017 16:20<br/>Distance: 13,2 km (07:12)<br/>Temps déplacement: 03:31<br/>Vitesse moyenne: 1,83 km/h<br/>Vitesse moyenne mouv.: 3,75 km/h<br/>Vitesse Max.: 8,95 km/h<br/>Altitude minimale: 645 m<br/>Altitude maximale: 1120 m<br/>Vitesse de montée: 207,8 m/h<br/>Vitesse de descente: -202,2 m/h<br/>Gain d'altitude: 730 m<br/>Perte d'altitude: -725 m<br/>Temps de montée: 03:30<br/>Temps de descente: 03:35<br/></p><hr align="center" width="480" style="height: 2px; width: 517px"/>]]></desc>
    <trkseg>
      <trkpt lat="44.43373" lon="3.931">
        <ele>656.59</ele>
        <time>2017-09-29T07:08:20Z</time>
      </trkpt>
      <trkpt lat="44.43388" lon="3.93085">
        <ele>645.07</ele>
        <time>2017-09-29T07:10:15Z</time>
      </trkpt>
      <trkpt lat="44.43407" lon="3.93083">
        <ele>650.68</ele>
        <time>2017-09-29T07:10:36Z</time>
      </trkpt>
      <trkpt lat="44.43423" lon="3.93095">
        <ele>653.32</ele>
        <time>2017-09-29T07:11:32Z</time>
      </trkpt>
      <trkpt lat="44.43441" lon="3.93086">
        <ele>662.38</ele>
        <time>2017-09-29T07:12:02Z</time>
      </trkpt>
      <trkpt lat="44.43451" lon="3.93064">
        <ele>663.72</ele>
        <time>2017-09-29T07:12:33Z</time>
      </trkpt>
      <trkpt lat="44.43462" lon="3.93044">
        <ele>665.39</ele>
        <time>2017-09-29T07:12:53Z</time>
      </trkpt>
      <trkpt lat="44.43474" lon="3.93024">
        <ele>667.36</ele>
        <time>2017-09-29T07:13:14Z</time>
      </trkpt>
      <trkpt lat="44.43489" lon="3.93006">
        <ele>665.62</ele>
        <time>2017-09-29T07:13:36Z</time>
      </trkpt>
      <trkpt lat="44.43505" lon="3.92995">
        <ele>672.32</ele>
        <time>2017-09-29T07:13:59Z</time>
      </trkpt>
      <trkpt lat="44.43523" lon="3.92991">
        <ele>675.9</ele>
        <time>2017-09-29T07:14:21Z</time>
      </trkpt>
      <trkpt lat="44.43533" lon="3.93011">
        <ele>683.56</ele>
        <time>2017-09-29T07:14:46Z</time>
      </trkpt>
      <trkpt lat="44.43545" lon="3.93032">
        <ele>680.31</ele>
        <time>2017-09-29T07:15:10Z</time>
      </trkpt>
      <trkpt lat="44.43564" lon="3.9303">
        <ele>688.3</ele>
        <time>2017-09-29T07:15:30Z</time>
      </trkpt>
      <trkpt lat="44.4358" lon="3.93018">
        <ele>687.5</ele>
        <time>2017-09-29T07:15:58Z</time>
      </trkpt>
      <trkpt lat="44.43566" lon="3.92999">
        <ele>690.02</ele>
        <time>2017-09-29T07:16:37Z</time>
      </trkpt>
      <trkpt lat="44.43551" lon="3.92985">
        <ele>689.78</ele>
        <time>2017-09-29T07:16:59Z</time>
      </trkpt>
      <trkpt lat="44.43547" lon="3.92959">
        <ele>693.66</ele>
        <time>2017-09-29T07:17:20Z</time>
      </trkpt>
      <trkpt lat="44.43543" lon="3.92935">
        <ele>698.67</ele>
        <time>2017-09-29T07:17:44Z</time>
      </trkpt>
      <trkpt lat="44.43533" lon="3.92912">
        <ele>703.66</ele>
        <time>2017-09-29T07:18:07Z</time>
      </trkpt>
      <trkpt lat="44.43518" lon="3.92895">
        <ele>708.09</ele>
        <time>2017-09-29T07:18:31Z</time>
      </trkpt>
      <trkpt lat="44.435" lon="3.92895">
        <ele>709.57</ele>
        <time>2017-09-29T07:18:43Z</time>
      </trkpt>
      <trkpt lat="44.43482" lon="3.92903">
        <ele>705.6</ele>
        <time>2017-09-29T07:19:14Z</time>
      </trkpt>
      <trkpt lat="44.43464" lon="3.92909">
        <ele>697.74</ele>
        <time>2017-09-29T07:19:38Z</time>
      </trkpt>
      <trkpt lat="44.43447" lon="3.92915">
        <ele>706.39</ele>
        <time>2017-09-29T07:19:53Z</time>
      </trkpt>
      <trkpt lat="44.43428" lon="3.92914">
        <ele>709.69</ele>
        <time>2017-09-29T07:20:25Z</time>
      </trkpt>
      <trkpt lat="44.43424" lon="3.92889">
        <ele>715.66</ele>
        <time>2017-09-29T07:20:52Z</time>
      </trkpt>
      <trkpt lat="44.43438" lon="3.92872">
        <ele>730.54</ele>
        <time>2017-09-29T07:21:43Z</time>
      </trkpt>
      <trkpt lat="44.4345" lon="3.9285">
        <ele>725.69</ele>
        <time>2017-09-29T07:22:01Z</time>
      </trkpt>
      <trkpt lat="44.43469" lon="3.92852">
        <ele>726.67</ele>
        <time>2017-09-29T07:22:14Z</time>
      </trkpt>
      <trkpt lat="44.43452" lon="3.92837">
        <ele>731.03</ele>
        <time>2017-09-29T07:22:55Z</time>
      </trkpt>
      <trkpt lat="44.43434" lon="3.92833">
        <ele>731.77</ele>
        <time>2017-09-29T07:23:07Z</time>
      </trkpt>
      <trkpt lat="44.43415" lon="3.92831">
        <ele>730.8</ele>
        <time>2017-09-29T07:23:37Z</time>
      </trkpt>
      <trkpt lat="44.43398" lon="3.92822">
        <ele>728.68</ele>
        <time>2017-09-29T07:23:59Z</time>
      </trkpt>
      <trkpt lat="44.43379" lon="3.92821">
        <ele>736.1</ele>
        <time>2017-09-29T07:24:32Z</time>
      </trkpt>
      <trkpt lat="44.43397" lon="3.92811">
        <ele>739.6</ele>
        <time>2017-09-29T07:25:28Z</time>
      </trkpt>
      <trkpt lat="44.43414" lon="3.928">
        <ele>743.08</ele>
        <time>2017-09-29T07:25:45Z</time>
      </trkpt>
      <trkpt lat="44.43398" lon="3.92787">
        <ele>736.69</ele>
        <time>2017-09-29T07:26:33Z</time>
      </trkpt>
      <trkpt lat="44.43379" lon="3.92781">
        <ele>740.51</ele>
        <time>2017-09-29T07:26:51Z</time>
      </trkpt>
      <trkpt lat="44.4336" lon="3.92779">
        <ele>741.41</ele>
        <time>2017-09-29T07:27:15Z</time>
      </trkpt>
      <trkpt lat="44.43342" lon="3.92781">
        <ele>741.97</ele>
        <time>2017-09-29T07:27:41Z</time>
      </trkpt>
      <trkpt lat="44.43324" lon="3.92781">
        <ele>750.75</ele>
        <time>2017-09-29T07:28:03Z</time>
      </trkpt>
      <trkpt lat="44.43306" lon="3.92775">
        <ele>752.02</ele>
        <time>2017-09-29T07:28:25Z</time>
      </trkpt>
      <trkpt lat="44.43289" lon="3.92767">
        <ele>752.35</ele>
        <time>2017-09-29T07:28:59Z</time>
      </trkpt>
      <trkpt lat="44.43271" lon="3.92771">
        <ele>758.29</ele>
        <time>2017-09-29T07:29:18Z</time>
      </trkpt>
      <trkpt lat="44.43254" lon="3.9276">
        <ele>756.99</ele>
        <time>2017-09-29T07:29:49Z</time>
      </trkpt>
      <trkpt lat="44.43241" lon="3.92742">
        <ele>761.06</ele>
        <time>2017-09-29T07:30:19Z</time>
      </trkpt>
      <trkpt lat="44.43228" lon="3.92723">
        <ele>768.63</ele>
        <time>2017-09-29T07:30:46Z</time>
      </trkpt>
      <trkpt lat="44.43218" lon="3.92702">
        <ele>782.52</ele>
        <time>2017-09-29T07:31:15Z</time>
      </trkpt>
      <trkpt lat="44.432" lon="3.92688">
        <ele>791.36</ele>
        <time>2017-09-29T07:31:38Z</time>
      </trkpt>
      <trkpt lat="44.43187" lon="3.9267">
        <ele>782.53</ele>
        <time>2017-09-29T07:31:54Z</time>
      </trkpt>
      <trkpt lat="44.43169" lon="3.92663">
        <ele>788.85</ele>
        <time>2017-09-29T07:34:41Z</time>
      </trkpt>
      <trkpt lat="44.4315" lon="3.92665">
        <ele>788.99</ele>
        <time>2017-09-29T07:34:57Z</time>
      </trkpt>
      <trkpt lat="44.43134" lon="3.92655">
        <ele>776.69</ele>
        <time>2017-09-29T07:35:21Z</time>
      </trkpt>
      <trkpt lat="44.43115" lon="3.9266">
        <ele>774.77</ele>
        <time>2017-09-29T07:35:38Z</time>
      </trkpt>
      <trkpt lat="44.43098" lon="3.92667">
        <ele>773.09</ele>
        <time>2017-09-29T07:36:05Z</time>
      </trkpt>
      <trkpt lat="44.43079" lon="3.92668">
        <ele>785.3</ele>
        <time>2017-09-29T07:36:38Z</time>
      </trkpt>
      <trkpt lat="44.43061" lon="3.92667">
        <ele>785.97</ele>
        <time>2017-09-29T07:36:54Z</time>
      </trkpt>
      <trkpt lat="44.43044" lon="3.92679">
        <ele>788.39</ele>
        <time>2017-09-29T07:37:10Z</time>
      </trkpt>
      <trkpt lat="44.43026" lon="3.92684">
        <ele>785.43</ele>
        <time>2017-09-29T07:37:44Z</time>
      </trkpt>
      <trkpt lat="44.4301" lon="3.92672">
        <ele>792.2</ele>
        <time>2017-09-29T07:38:33Z</time>
      </trkpt>
      <trkpt lat="44.4299" lon="3.92676">
        <ele>798.01</ele>
        <time>2017-09-29T07:38:42Z</time>
      </trkpt>
      <trkpt lat="44.42972" lon="3.92678">
        <ele>802.61</ele>
        <time>2017-09-29T07:38:50Z</time>
      </trkpt>
      <trkpt lat="44.42955" lon="3.92683">
        <ele>796.59</ele>
        <time>2017-09-29T07:39:30Z</time>
      </trkpt>
      <trkpt lat="44.42938" lon="3.92693">
        <ele>811.01</ele>
        <time>2017-09-29T07:39:57Z</time>
      </trkpt>
      <trkpt lat="44.42921" lon="3.92704">
        <ele>810.79</ele>
        <time>2017-09-29T07:40:09Z</time>
      </trkpt>
      <trkpt lat="44.42907" lon="3.92721">
        <ele>809.77</ele>
        <time>2017-09-29T07:40:35Z</time>
      </trkpt>
      <trkpt lat="44.42892" lon="3.92736">
        <ele>806.38</ele>
        <time>2017-09-29T07:41:01Z</time>
      </trkpt>
      <trkpt lat="44.4288" lon="3.92756">
        <ele>806.94</ele>
        <time>2017-09-29T07:41:24Z</time>
      </trkpt>
      <trkpt lat="44.42869" lon="3.92777">
        <ele>813.6</ele>
        <time>2017-09-29T07:41:47Z</time>
      </trkpt>
      <trkpt lat="44.42863" lon="3.92802">
        <ele>812.69</ele>
        <time>2017-09-29T07:42:16Z</time>
      </trkpt>
      <trkpt lat="44.42846" lon="3.92809">
        <ele>816.15</ele>
        <time>2017-09-29T07:42:44Z</time>
      </trkpt>
      <trkpt lat="44.42852" lon="3.92784">
        <ele>825.43</ele>
        <time>2017-09-29T07:45:30Z</time>
      </trkpt>
      <trkpt lat="44.42862" lon="3.92764">
        <ele>826.66</ele>
        <time>2017-09-29T07:45:46Z</time>
      </trkpt>
      <trkpt lat="44.42864" lon="3.92737">
        <ele>827.77</ele>
        <time>2017-09-29T07:46:16Z</time>
      </trkpt>
      <trkpt lat="44.42866" lon="3.92712">
        <ele>829.9</ele>
        <time>2017-09-29T07:46:35Z</time>
      </trkpt>
      <trkpt lat="44.42874" lon="3.92689">
        <ele>834.62</ele>
        <time>2017-09-29T07:46:57Z</time>
      </trkpt>
      <trkpt lat="44.42886" lon="3.9267">
        <ele>836.66</ele>
        <time>2017-09-29T07:47:15Z</time>
      </trkpt>
      <trkpt lat="44.42893" lon="3.92646">
        <ele>837.4</ele>
        <time>2017-09-29T07:47:37Z</time>
      </trkpt>
      <trkpt lat="44.42904" lon="3.92625">
        <ele>841.13</ele>
        <time>2017-09-29T07:48:04Z</time>
      </trkpt>
      <trkpt lat="44.42917" lon="3.92606">
        <ele>840.17</ele>
        <time>2017-09-29T07:48:29Z</time>
      </trkpt>
      <trkpt lat="44.42927" lon="3.92585">
        <ele>845.66</ele>
        <time>2017-09-29T07:48:54Z</time>
      </trkpt>
      <trkpt lat="44.42941" lon="3.92569">
        <ele>845.48</ele>
        <time>2017-09-29T07:49:16Z</time>
      </trkpt>
      <trkpt lat="44.42952" lon="3.92549">
        <ele>846.63</ele>
        <time>2017-09-29T07:49:38Z</time>
      </trkpt>
      <trkpt lat="44.42967" lon="3.92533">
        <ele>846.38</ele>
        <time>2017-09-29T07:50:01Z</time>
      </trkpt>
      <trkpt lat="44.42983" lon="3.92518">
        <ele>846.56</ele>
        <time>2017-09-29T07:50:26Z</time>
      </trkpt>
      <trkpt lat="44.43001" lon="3.92511">
        <ele>850.29</ele>
        <time>2017-09-29T07:50:51Z</time>
      </trkpt>
      <trkpt lat="44.43017" lon="3.92502">
        <ele>846.6</ele>
        <time>2017-09-29T07:51:06Z</time>
      </trkpt>
      <trkpt lat="44.43035" lon="3.92494">
        <ele>848.77</ele>
        <time>2017-09-29T07:51:31Z</time>
      </trkpt>
      <trkpt lat="44.43052" lon="3.92485">
        <ele>853.6</ele>
        <time>2017-09-29T07:51:51Z</time>
      </trkpt>
      <trkpt lat="44.43069" lon="3.92474">
        <ele>851.32</ele>
        <time>2017-09-29T07:52:17Z</time>
      </trkpt>
      <trkpt lat="44.43087" lon="3.92466">
        <ele>849.69</ele>
        <time>2017-09-29T07:52:34Z</time>
      </trkpt>
      <trkpt lat="44.43102" lon="3.92451">
        <ele>847.52</ele>
        <time>2017-09-29T07:52:57Z</time>
      </trkpt>
      <trkpt lat="44.4312" lon="3.92443">
        <ele>849.84</ele>
        <time>2017-09-29T07:53:22Z</time>
      </trkpt>
      <trkpt lat="44.43136" lon="3.9243">
        <ele>855.39</ele>
        <time>2017-09-29T07:53:50Z</time>
      </trkpt>
      <trkpt lat="44.43153" lon="3.92419">
        <ele>858.39</ele>
        <time>2017-09-29T07:54:07Z</time>
      </trkpt>
      <trkpt lat="44.43136" lon="3.92408">
        <ele>853.55</ele>
        <time>2017-09-29T08:01:52Z</time>
      </trkpt>
      <trkpt lat="44.43119" lon="3.92417">
        <ele>853.22</ele>
        <time>2017-09-29T08:02:12Z</time>
      </trkpt>
      <trkpt lat="44.431" lon="3.92413">
        <ele>860.99</ele>
        <time>2017-09-29T08:02:49Z</time>
      </trkpt>
      <trkpt lat="44.43083" lon="3.92404">
        <ele>860.84</ele>
        <time>2017-09-29T08:03:01Z</time>
      </trkpt>
      <trkpt lat="44.43066" lon="3.9241">
        <ele>863.78</ele>
        <time>2017-09-29T08:03:23Z</time>
      </trkpt>
      <trkpt lat="44.43046" lon="3.92417">
        <ele>861.58</ele>
        <time>2017-09-29T08:04:02Z</time>
      </trkpt>
      <trkpt lat="44.43028" lon="3.92415">
        <ele>861.51</ele>
        <time>2017-09-29T08:04:23Z</time>
      </trkpt>
      <trkpt lat="44.43009" lon="3.92413">
        <ele>863.57</ele>
        <time>2017-09-29T08:04:44Z</time>
      </trkpt>
      <trkpt lat="44.42991" lon="3.92415">
        <ele>867.9</ele>
        <time>2017-09-29T08:05:11Z</time>
      </trkpt>
      <trkpt lat="44.42972" lon="3.92413">
        <ele>873.69</ele>
        <time>2017-09-29T08:05:34Z</time>
      </trkpt>
      <trkpt lat="44.42954" lon="3.92417">
        <ele>875.68</ele>
        <time>2017-09-29T08:06:04Z</time>
      </trkpt>
      <trkpt lat="44.42936" lon="3.92417">
        <ele>870.5</ele>
        <time>2017-09-29T08:06:41Z</time>
      </trkpt>
      <trkpt lat="44.42918" lon="3.92411">
        <ele>885.69</ele>
        <time>2017-09-29T08:07:03Z</time>
      </trkpt>
      <trkpt lat="44.429" lon="3.9241">
        <ele>891.75</ele>
        <time>2017-09-29T08:07:46Z</time>
      </trkpt>
      <trkpt lat="44.42881" lon="3.92408">
        <ele>897.66</ele>
        <time>2017-09-29T08:08:59Z</time>
      </trkpt>
      <trkpt lat="44.42864" lon="3.92402">
        <ele>897.68</ele>
        <time>2017-09-29T08:09:28Z</time>
      </trkpt>
      <trkpt lat="44.42845" lon="3.92403">
        <ele>906.81</ele>
        <time>2017-09-29T08:10:29Z</time>
      </trkpt>
      <trkpt lat="44.42826" lon="3.92398">
        <ele>907.79</ele>
        <time>2017-09-29T08:14:41Z</time>
      </trkpt>
      <trkpt lat="44.42808" lon="3.92403">
        <ele>912.27</ele>
        <time>2017-09-29T08:15:10Z</time>
      </trkpt>
      <trkpt lat="44.4279" lon="3.92401">
        <ele>905.23</ele>
        <time>2017-09-29T08:15:42Z</time>
      </trkpt>
      <trkpt lat="44.42771" lon="3.92397">
        <ele>922.68</ele>
        <time>2017-09-29T08:16:21Z</time>
      </trkpt>
      <trkpt lat="44.42753" lon="3.92394">
        <ele>933.11</ele>
        <time>2017-09-29T08:19:36Z</time>
      </trkpt>
      <trkpt lat="44.42735" lon="3.92392">
        <ele>939.02</ele>
        <time>2017-09-29T08:20:07Z</time>
      </trkpt>
      <trkpt lat="44.42717" lon="3.92391">
        <ele>945.47</ele>
        <time>2017-09-29T08:20:47Z</time>
      </trkpt>
      <trkpt lat="44.42699" lon="3.92385">
        <ele>950.07</ele>
        <time>2017-09-29T08:21:38Z</time>
      </trkpt>
      <trkpt lat="44.42681" lon="3.92391">
        <ele>954.35</ele>
        <time>2017-09-29T08:22:16Z</time>
      </trkpt>
      <trkpt lat="44.42662" lon="3.92392">
        <ele>957.69</ele>
        <time>2017-09-29T08:23:41Z</time>
      </trkpt>
      <trkpt lat="44.42647" lon="3.92376">
        <ele>961.6</ele>
        <time>2017-09-29T08:28:24Z</time>
      </trkpt>
      <trkpt lat="44.42631" lon="3.92364">
        <ele>968.32</ele>
        <time>2017-09-29T08:29:05Z</time>
      </trkpt>
      <trkpt lat="44.42613" lon="3.92358">
        <ele>970.69</ele>
        <time>2017-09-29T08:29:23Z</time>
      </trkpt>
      <trkpt lat="44.42596" lon="3.92348">
        <ele>975.49</ele>
        <time>2017-09-29T08:29:46Z</time>
      </trkpt>
      <trkpt lat="44.42579" lon="3.92337">
        <ele>973.44</ele>
        <time>2017-09-29T08:30:07Z</time>
      </trkpt>
      <trkpt lat="44.42562" lon="3.9233">
        <ele>977.74</ele>
        <time>2017-09-29T08:30:47Z</time>
      </trkpt>
      <trkpt lat="44.42545" lon="3.92318">
        <ele>980.69</ele>
        <time>2017-09-29T08:31:23Z</time>
      </trkpt>
      <trkpt lat="44.42525" lon="3.92318">
        <ele>981.81</ele>
        <time>2017-09-29T08:32:09Z</time>
      </trkpt>
      <trkpt lat="44.42507" lon="3.92315">
        <ele>985.68</ele>
        <time>2017-09-29T08:32:25Z</time>
      </trkpt>
      <trkpt lat="44.42489" lon="3.92313">
        <ele>981.08</ele>
        <time>2017-09-29T08:33:20Z</time>
      </trkpt>
      <trkpt lat="44.42471" lon="3.92306">
        <ele>977.62</ele>
        <time>2017-09-29T08:33:45Z</time>
      </trkpt>
      <trkpt lat="44.42454" lon="3.92299">
        <ele>975.66</ele>
        <time>2017-09-29T08:34:05Z</time>
      </trkpt>
      <trkpt lat="44.42436" lon="3.92293">
        <ele>981.74</ele>
        <time>2017-09-29T08:34:25Z</time>
      </trkpt>
      <trkpt lat="44.42419" lon="3.92285">
        <ele>981.67</ele>
        <time>2017-09-29T08:34:47Z</time>
      </trkpt>
      <trkpt lat="44.42403" lon="3.9227">
        <ele>983.57</ele>
        <time>2017-09-29T08:35:07Z</time>
      </trkpt>
      <trkpt lat="44.42388" lon="3.92254">
        <ele>974.83</ele>
        <time>2017-09-29T08:35:22Z</time>
      </trkpt>
      <trkpt lat="44.42372" lon="3.92242">
        <ele>977.59</ele>
        <time>2017-09-29T08:35:41Z</time>
      </trkpt>
      <trkpt lat="44.42354" lon="3.92232">
        <ele>978.69</ele>
        <time>2017-09-29T08:36:45Z</time>
      </trkpt>
      <trkpt lat="44.42335" lon="3.92235">
        <ele>978.3</ele>
        <time>2017-09-29T08:37:03Z</time>
      </trkpt>
      <trkpt lat="44.42317" lon="3.9223">
        <ele>984.39</ele>
        <time>2017-09-29T08:37:22Z</time>
      </trkpt>
      <trkpt lat="44.42299" lon="3.92223">
        <ele>982.66</ele>
        <time>2017-09-29T08:39:44Z</time>
      </trkpt>
      <trkpt lat="44.42288" lon="3.92203">
        <ele>971.7</ele>
        <time>2017-09-29T08:40:19Z</time>
      </trkpt>
      <trkpt lat="44.42271" lon="3.92188">
        <ele>967.73</ele>
        <time>2017-09-29T08:40:46Z</time>
      </trkpt>
      <trkpt lat="44.42255" lon="3.92172">
        <ele>968.11</ele>
        <time>2017-09-29T08:41:04Z</time>
      </trkpt>
      <trkpt lat="44.42239" lon="3.92158">
        <ele>973.66</ele>
        <time>2017-09-29T08:41:22Z</time>
      </trkpt>
      <trkpt lat="44.42222" lon="3.92151">
        <ele>973.69</ele>
        <time>2017-09-29T08:42:17Z</time>
      </trkpt>
      <trkpt lat="44.42208" lon="3.92131">
        <ele>975.98</ele>
        <time>2017-09-29T08:42:44Z</time>
      </trkpt>
      <trkpt lat="44.42195" lon="3.92112">
        <ele>974.69</ele>
        <time>2017-09-29T08:43:03Z</time>
      </trkpt>
      <trkpt lat="44.4218" lon="3.92097">
        <ele>974.28</ele>
        <time>2017-09-29T08:43:22Z</time>
      </trkpt>
      <trkpt lat="44.42166" lon="3.92081">
        <ele>973.99</ele>
        <time>2017-09-29T08:43:54Z</time>
      </trkpt>
      <trkpt lat="44.42151" lon="3.92066">
        <ele>973.09</ele>
        <time>2017-09-29T08:44:17Z</time>
      </trkpt>
      <trkpt lat="44.42136" lon="3.92052">
        <ele>975.9</ele>
        <time>2017-09-29T08:44:32Z</time>
      </trkpt>
      <trkpt lat="44.42121" lon="3.92036">
        <ele>976.97</ele>
        <time>2017-09-29T08:44:51Z</time>
      </trkpt>
      <trkpt lat="44.42105" lon="3.92025">
        <ele>976.78</ele>
        <time>2017-09-29T08:45:19Z</time>
      </trkpt>
      <trkpt lat="44.42087" lon="3.92014">
        <ele>979.71</ele>
        <time>2017-09-29T08:45:44Z</time>
      </trkpt>
      <trkpt lat="44.42072" lon="3.91999">
        <ele>982.62</ele>
        <time>2017-09-29T08:46:08Z</time>
      </trkpt>
      <trkpt lat="44.42058" lon="3.91982">
        <ele>984.8</ele>
        <time>2017-09-29T08:46:36Z</time>
      </trkpt>
      <trkpt lat="44.42042" lon="3.91968">
        <ele>992.75</ele>
        <time>2017-09-29T08:47:06Z</time>
      </trkpt>
      <trkpt lat="44.42029" lon="3.91951">
        <ele>995.99</ele>
        <time>2017-09-29T08:48:28Z</time>
      </trkpt>
      <trkpt lat="44.42014" lon="3.91937">
        <ele>996.69</ele>
        <time>2017-09-29T08:48:50Z</time>
      </trkpt>
      <trkpt lat="44.41997" lon="3.91922">
        <ele>998.33</ele>
        <time>2017-09-29T08:49:13Z</time>
      </trkpt>
      <trkpt lat="44.41982" lon="3.91908">
        <ele>1000.39</ele>
        <time>2017-09-29T08:49:34Z</time>
      </trkpt>
      <trkpt lat="44.41967" lon="3.91894">
        <ele>1002.66</ele>
        <time>2017-09-29T08:50:07Z</time>
      </trkpt>
      <trkpt lat="44.41949" lon="3.91887">
        <ele>1008.38</ele>
        <time>2017-09-29T08:50:46Z</time>
      </trkpt>
      <trkpt lat="44.4193" lon="3.91884">
        <ele>1005.29</ele>
        <time>2017-09-29T08:54:59Z</time>
      </trkpt>
      <trkpt lat="44.41913" lon="3.91894">
        <ele>1006.24</ele>
        <time>2017-09-29T08:55:18Z</time>
      </trkpt>
      <trkpt lat="44.41895" lon="3.91892">
        <ele>1006.64</ele>
        <time>2017-09-29T08:55:32Z</time>
      </trkpt>
      <trkpt lat="44.41876" lon="3.91893">
        <ele>1003.36</ele>
        <time>2017-09-29T08:55:51Z</time>
      </trkpt>
      <trkpt lat="44.41856" lon="3.91892">
        <ele>1003.37</ele>
        <time>2017-09-29T08:56:15Z</time>
      </trkpt>
      <trkpt lat="44.41838" lon="3.91891">
        <ele>1000.66</ele>
        <time>2017-09-29T08:56:27Z</time>
      </trkpt>
      <trkpt lat="44.41819" lon="3.91886">
        <ele>1000.6</ele>
        <time>2017-09-29T08:56:44Z</time>
      </trkpt>
      <trkpt lat="44.41802" lon="3.91879">
        <ele>999.51</ele>
        <time>2017-09-29T08:56:59Z</time>
      </trkpt>
      <trkpt lat="44.41783" lon="3.91871">
        <ele>1000.6</ele>
        <time>2017-09-29T08:57:22Z</time>
      </trkpt>
      <trkpt lat="44.41765" lon="3.91863">
        <ele>1001.7</ele>
        <time>2017-09-29T08:57:41Z</time>
      </trkpt>
      <trkpt lat="44.41747" lon="3.91854">
        <ele>999.69</ele>
        <time>2017-09-29T08:57:56Z</time>
      </trkpt>
      <trkpt lat="44.41728" lon="3.91844">
        <ele>998.36</ele>
        <time>2017-09-29T08:58:16Z</time>
      </trkpt>
      <trkpt lat="44.4171" lon="3.91839">
        <ele>999.72</ele>
        <time>2017-09-29T08:58:36Z</time>
      </trkpt>
      <trkpt lat="44.41692" lon="3.91838">
        <ele>1000.31</ele>
        <time>2017-09-29T08:58:52Z</time>
      </trkpt>
      <trkpt lat="44.41673" lon="3.91832">
        <ele>997.12</ele>
        <time>2017-09-29T08:59:15Z</time>
      </trkpt>
      <trkpt lat="44.41655" lon="3.91831">
        <ele>1000.01</ele>
        <time>2017-09-29T08:59:28Z</time>
      </trkpt>
      <trkpt lat="44.41636" lon="3.91826">
        <ele>992.37</ele>
        <time>2017-09-29T08:59:43Z</time>
      </trkpt>
      <trkpt lat="44.41617" lon="3.91822">
        <ele>997.85</ele>
        <time>2017-09-29T09:00:00Z</time>
      </trkpt>
      <trkpt lat="44.41598" lon="3.91815">
        <ele>996.97</ele>
        <time>2017-09-29T09:00:16Z</time>
      </trkpt>
      <trkpt lat="44.41579" lon="3.91814">
        <ele>998.21</ele>
        <time>2017-09-29T09:00:41Z</time>
      </trkpt>
      <trkpt lat="44.41561" lon="3.91813">
        <ele>999.97</ele>
        <time>2017-09-29T09:00:53Z</time>
      </trkpt>
      <trkpt lat="44.41543" lon="3.91809">
        <ele>998.93</ele>
        <time>2017-09-29T09:01:11Z</time>
      </trkpt>
      <trkpt lat="44.41525" lon="3.91805">
        <ele>997.86</ele>
        <time>2017-09-29T09:01:32Z</time>
      </trkpt>
      <trkpt lat="44.41506" lon="3.91802">
        <ele>1000.32</ele>
        <time>2017-09-29T09:01:52Z</time>
      </trkpt>
      <trkpt lat="44.41489" lon="3.91795">
        <ele>1006.66</ele>
        <time>2017-09-29T09:02:15Z</time>
      </trkpt>
      <trkpt lat="44.41471" lon="3.9179">
        <ele>1006.66</ele>
        <time>2017-09-29T09:03:01Z</time>
      </trkpt>
      <trkpt lat="44.41452" lon="3.91792">
        <ele>1012.01</ele>
        <time>2017-09-29T09:04:37Z</time>
      </trkpt>
      <trkpt lat="44.41434" lon="3.91792">
        <ele>1014.69</ele>
        <time>2017-09-29T09:05:27Z</time>
      </trkpt>
      <trkpt lat="44.41416" lon="3.91793">
        <ele>1016.95</ele>
        <time>2017-09-29T09:06:34Z</time>
      </trkpt>
      <trkpt lat="44.41397" lon="3.91794">
        <ele>1023.87</ele>
        <time>2017-09-29T09:07:10Z</time>
      </trkpt>
      <trkpt lat="44.41379" lon="3.91798">
        <ele>1030.38</ele>
        <time>2017-09-29T09:07:47Z</time>
      </trkpt>
      <trkpt lat="44.41361" lon="3.918">
        <ele>1033.39</ele>
        <time>2017-09-29T09:08:30Z</time>
      </trkpt>
      <trkpt lat="44.41343" lon="3.91803">
        <ele>1036.96</ele>
        <time>2017-09-29T09:09:39Z</time>
      </trkpt>
      <trkpt lat="44.41325" lon="3.91809">
        <ele>1040.61</ele>
        <time>2017-09-29T09:10:16Z</time>
      </trkpt>
      <trkpt lat="44.41307" lon="3.9181">
        <ele>1042.7</ele>
        <time>2017-09-29T09:10:38Z</time>
      </trkpt>
      <trkpt lat="44.41287" lon="3.91804">
        <ele>1046.9</ele>
        <time>2017-09-29T09:11:05Z</time>
      </trkpt>
      <trkpt lat="44.4127" lon="3.9181">
        <ele>1051.14</ele>
        <time>2017-09-29T09:11:40Z</time>
      </trkpt>
      <trkpt lat="44.41251" lon="3.91811">
        <ele>1057.64</ele>
        <time>2017-09-29T09:12:07Z</time>
      </trkpt>
      <trkpt lat="44.41233" lon="3.91818">
        <ele>1056.55</ele>
        <time>2017-09-29T09:20:10Z</time>
      </trkpt>
      <trkpt lat="44.41215" lon="3.91823">
        <ele>1053.59</ele>
        <time>2017-09-29T09:20:26Z</time>
      </trkpt>
      <trkpt lat="44.41197" lon="3.91833">
        <ele>1054.3</ele>
        <time>2017-09-29T09:20:43Z</time>
      </trkpt>
      <trkpt lat="44.41179" lon="3.91844">
        <ele>1055.4</ele>
        <time>2017-09-29T09:21:06Z</time>
      </trkpt>
      <trkpt lat="44.41161" lon="3.91857">
        <ele>1054.37</ele>
        <time>2017-09-29T09:21:23Z</time>
      </trkpt>
      <trkpt lat="44.41143" lon="3.91863">
        <ele>1049.96</ele>
        <time>2017-09-29T09:21:47Z</time>
      </trkpt>
      <trkpt lat="44.41125" lon="3.91877">
        <ele>1052.39</ele>
        <time>2017-09-29T09:22:02Z</time>
      </trkpt>
      <trkpt lat="44.41106" lon="3.91885">
        <ele>1049.96</ele>
        <time>2017-09-29T09:22:16Z</time>
      </trkpt>
      <trkpt lat="44.4109" lon="3.91897">
        <ele>1049.31</ele>
        <time>2017-09-29T09:22:35Z</time>
      </trkpt>
      <trkpt lat="44.41072" lon="3.91906">
        <ele>1047.24</ele>
        <time>2017-09-29T09:23:07Z</time>
      </trkpt>
      <trkpt lat="44.41055" lon="3.91916">
        <ele>1049.69</ele>
        <time>2017-09-29T09:23:21Z</time>
      </trkpt>
      <trkpt lat="44.41037" lon="3.91923">
        <ele>1051.49</ele>
        <time>2017-09-29T09:23:39Z</time>
      </trkpt>
      <trkpt lat="44.4102" lon="3.91929">
        <ele>1055.41</ele>
        <time>2017-09-29T09:23:55Z</time>
      </trkpt>
      <trkpt lat="44.41001" lon="3.91934">
        <ele>1053.39</ele>
        <time>2017-09-29T09:24:10Z</time>
      </trkpt>
      <trkpt lat="44.40983" lon="3.91939">
        <ele>1044.69</ele>
        <time>2017-09-29T09:24:40Z</time>
      </trkpt>
      <trkpt lat="44.40965" lon="3.91945">
        <ele>1046.72</ele>
        <time>2017-09-29T09:25:01Z</time>
      </trkpt>
      <trkpt lat="44.40946" lon="3.91949">
        <ele>1044.69</ele>
        <time>2017-09-29T09:25:15Z</time>
      </trkpt>
      <trkpt lat="44.40927" lon="3.91944">
        <ele>1046.6</ele>
        <time>2017-09-29T09:25:35Z</time>
      </trkpt>
      <trkpt lat="44.40909" lon="3.91945">
        <ele>1044.36</ele>
        <time>2017-09-29T09:25:53Z</time>
      </trkpt>
      <trkpt lat="44.40892" lon="3.91935">
        <ele>1042.38</ele>
        <time>2017-09-29T09:26:10Z</time>
      </trkpt>
      <trkpt lat="44.40875" lon="3.91925">
        <ele>1041.36</ele>
        <time>2017-09-29T09:26:47Z</time>
      </trkpt>
      <trkpt lat="44.40861" lon="3.91908">
        <ele>1049.09</ele>
        <time>2017-09-29T09:27:14Z</time>
      </trkpt>
      <trkpt lat="44.40843" lon="3.91898">
        <ele>1049.66</ele>
        <time>2017-09-29T09:28:00Z</time>
      </trkpt>
      <trkpt lat="44.40825" lon="3.91889">
        <ele>1050.71</ele>
        <time>2017-09-29T09:28:17Z</time>
      </trkpt>
      <trkpt lat="44.4081" lon="3.91875">
        <ele>1059.98</ele>
        <time>2017-09-29T09:29:10Z</time>
      </trkpt>
      <trkpt lat="44.40793" lon="3.91865">
        <ele>1065.39</ele>
        <time>2017-09-29T09:29:37Z</time>
      </trkpt>
      <trkpt lat="44.40779" lon="3.91845">
        <ele>1065.39</ele>
        <time>2017-09-29T09:30:04Z</time>
      </trkpt>
      <trkpt lat="44.40767" lon="3.91826">
        <ele>1068.48</ele>
        <time>2017-09-29T09:30:24Z</time>
      </trkpt>
      <trkpt lat="44.4075" lon="3.91817">
        <ele>1074.69</ele>
        <time>2017-09-29T09:31:05Z</time>
      </trkpt>
      <trkpt lat="44.40732" lon="3.91815">
        <ele>1075.4</ele>
        <time>2017-09-29T09:31:43Z</time>
      </trkpt>
      <trkpt lat="44.40719" lon="3.91799">
        <ele>1085.5</ele>
        <time>2017-09-29T09:32:43Z</time>
      </trkpt>
      <trkpt lat="44.40702" lon="3.91789">
        <ele>1091.37</ele>
        <time>2017-09-29T09:33:32Z</time>
      </trkpt>
      <trkpt lat="44.40684" lon="3.91791">
        <ele>1093.96</ele>
        <time>2017-09-29T09:34:18Z</time>
      </trkpt>
      <trkpt lat="44.40666" lon="3.91788">
        <ele>1101.69</ele>
        <time>2017-09-29T09:34:49Z</time>
      </trkpt>
      <trkpt lat="44.40648" lon="3.91795">
        <ele>1103.37</ele>
        <time>2017-09-29T09:35:54Z</time>
      </trkpt>
      <trkpt lat="44.4063" lon="3.91789">
        <ele>1107.69</ele>
        <time>2017-09-29T09:45:08Z</time>
      </trkpt>
      <trkpt lat="44.40612" lon="3.91784">
        <ele>1103</ele>
        <time>2017-09-29T09:45:29Z</time>
      </trkpt>
      <trkpt lat="44.40595" lon="3.91778">
        <ele>1105.9</ele>
        <time>2017-09-29T09:45:53Z</time>
      </trkpt>
      <trkpt lat="44.40578" lon="3.91767">
        <ele>1107.98</ele>
        <time>2017-09-29T09:46:18Z</time>
      </trkpt>
      <trkpt lat="44.40559" lon="3.91767">
        <ele>1107.75</ele>
        <time>2017-09-29T09:46:39Z</time>
      </trkpt>
      <trkpt lat="44.40541" lon="3.91763">
        <ele>1110.39</ele>
        <time>2017-09-29T09:47:10Z</time>
      </trkpt>
      <trkpt lat="44.40528" lon="3.91744">
        <ele>1111.78</ele>
        <time>2017-09-29T09:47:31Z</time>
      </trkpt>
      <trkpt lat="44.4052" lon="3.91719">
        <ele>1113.69</ele>
        <time>2017-09-29T09:47:48Z</time>
      </trkpt>
      <trkpt lat="44.4051" lon="3.91698">
        <ele>1105.98</ele>
        <time>2017-09-29T09:48:08Z</time>
      </trkpt>
      <trkpt lat="44.40496" lon="3.9168">
        <ele>1107.63</ele>
        <time>2017-09-29T09:48:47Z</time>
      </trkpt>
      <trkpt lat="44.40481" lon="3.91664">
        <ele>1109.58</ele>
        <time>2017-09-29T09:49:10Z</time>
      </trkpt>
      <trkpt lat="44.4047" lon="3.91642">
        <ele>1108.58</ele>
        <time>2017-09-29T09:49:28Z</time>
      </trkpt>
      <trkpt lat="44.40461" lon="3.91619">
        <ele>1110.47</ele>
        <time>2017-09-29T09:49:46Z</time>
      </trkpt>
      <trkpt lat="44.4045" lon="3.91598">
        <ele>1114.32</ele>
        <time>2017-09-29T09:50:18Z</time>
      </trkpt>
      <trkpt lat="44.4044" lon="3.91575">
        <ele>1109.69</ele>
        <time>2017-09-29T09:50:38Z</time>
      </trkpt>
      <trkpt lat="44.40434" lon="3.91551">
        <ele>1112.66</ele>
        <time>2017-09-29T09:51:07Z</time>
      </trkpt>
      <trkpt lat="44.40424" lon="3.91529">
        <ele>1111.66</ele>
        <time>2017-09-29T09:51:40Z</time>
      </trkpt>
      <trkpt lat="44.40422" lon="3.91504">
        <ele>1108.99</ele>
        <time>2017-09-29T09:52:04Z</time>
      </trkpt>
      <trkpt lat="44.4042" lon="3.91479">
        <ele>1110.41</ele>
        <time>2017-09-29T09:52:37Z</time>
      </trkpt>
      <trkpt lat="44.40423" lon="3.91453">
        <ele>1107.31</ele>
        <time>2017-09-29T09:54:20Z</time>
      </trkpt>
      <trkpt lat="44.40412" lon="3.91433">
        <ele>1093.7</ele>
        <time>2017-09-29T09:56:04Z</time>
      </trkpt>
      <trkpt lat="44.40407" lon="3.91408">
        <ele>1094.08</ele>
        <time>2017-09-29T09:56:46Z</time>
      </trkpt>
      <trkpt lat="44.40406" lon="3.91383">
        <ele>1092.9</ele>
        <time>2017-09-29T09:58:11Z</time>
      </trkpt>
      <trkpt lat="44.40408" lon="3.91357">
        <ele>1094.62</ele>
        <time>2017-09-29T09:59:03Z</time>
      </trkpt>
      <trkpt lat="44.40411" lon="3.91331">
        <ele>1091.72</ele>
        <time>2017-09-29T10:00:31Z</time>
      </trkpt>
      <trkpt lat="44.40413" lon="3.91305">
        <ele>1094.69</ele>
        <time>2017-09-29T10:00:54Z</time>
      </trkpt>
      <trkpt lat="44.40417" lon="3.91279">
        <ele>1096.31</ele>
        <time>2017-09-29T10:01:24Z</time>
      </trkpt>
      <trkpt lat="44.40416" lon="3.91253">
        <ele>1097.57</ele>
        <time>2017-09-29T10:01:45Z</time>
      </trkpt>
      <trkpt lat="44.40419" lon="3.91228">
        <ele>1100.66</ele>
        <time>2017-09-29T10:02:29Z</time>
      </trkpt>
      <trkpt lat="44.40414" lon="3.91204">
        <ele>1102.69</ele>
        <time>2017-09-29T10:02:54Z</time>
      </trkpt>
      <trkpt lat="44.40416" lon="3.91178">
        <ele>1110.24</ele>
        <time>2017-09-29T10:03:26Z</time>
      </trkpt>
      <trkpt lat="44.40407" lon="3.91155">
        <ele>1109.12</ele>
        <time>2017-09-29T10:03:46Z</time>
      </trkpt>
      <trkpt lat="44.40395" lon="3.91136">
        <ele>1110.08</ele>
        <time>2017-09-29T10:04:03Z</time>
      </trkpt>
      <trkpt lat="44.40382" lon="3.91118">
        <ele>1109.47</ele>
        <time>2017-09-29T10:04:27Z</time>
      </trkpt>
      <trkpt lat="44.40369" lon="3.911">
        <ele>1113.77</ele>
        <time>2017-09-29T10:04:53Z</time>
      </trkpt>
      <trkpt lat="44.40357" lon="3.91079">
        <ele>1111.63</ele>
        <time>2017-09-29T10:05:14Z</time>
      </trkpt>
      <trkpt lat="44.40353" lon="3.91053">
        <ele>1110.66</ele>
        <time>2017-09-29T10:05:32Z</time>
      </trkpt>
      <trkpt lat="44.40352" lon="3.91028">
        <ele>1120.67</ele>
        <time>2017-09-29T10:05:52Z</time>
      </trkpt>
      <trkpt lat="44.40341" lon="3.91004">
        <ele>1115.09</ele>
        <time>2017-09-29T10:06:27Z</time>
      </trkpt>
      <trkpt lat="44.40328" lon="3.90983">
        <ele>1112.98</ele>
        <time>2017-09-29T10:06:41Z</time>
      </trkpt>
      <trkpt lat="44.40327" lon="3.90958">
        <ele>1114.86</ele>
        <time>2017-09-29T10:07:00Z</time>
      </trkpt>
      <trkpt lat="44.40323" lon="3.90933">
        <ele>1117.94</ele>
        <time>2017-09-29T10:07:18Z</time>
      </trkpt>
      <trkpt lat="44.40317" lon="3.90908">
        <ele>1112.07</ele>
        <time>2017-09-29T10:07:37Z</time>
      </trkpt>
      <trkpt lat="44.40307" lon="3.90885">
        <ele>1113.33</ele>
        <time>2017-09-29T10:07:58Z</time>
      </trkpt>
      <trkpt lat="44.40297" lon="3.90863">
        <ele>1110.9</ele>
        <time>2017-09-29T10:08:16Z</time>
      </trkpt>
      <trkpt lat="44.40293" lon="3.90837">
        <ele>1109.9</ele>
        <time>2017-09-29T10:08:41Z</time>
      </trkpt>
      <trkpt lat="44.40289" lon="3.90813">
        <ele>1113.65</ele>
        <time>2017-09-29T10:09:00Z</time>
      </trkpt>
      <trkpt lat="44.4028" lon="3.90789">
        <ele>1120.6</ele>
        <time>2017-09-29T10:09:26Z</time>
      </trkpt>
      <trkpt lat="44.40268" lon="3.9077">
        <ele>1117.83</ele>
        <time>2017-09-29T10:09:37Z</time>
      </trkpt>
      <trkpt lat="44.40253" lon="3.90756">
        <ele>1112.61</ele>
        <time>2017-09-29T10:10:00Z</time>
      </trkpt>
      <trkpt lat="44.40239" lon="3.9074">
        <ele>1110.37</ele>
        <time>2017-09-29T10:10:23Z</time>
      </trkpt>
      <trkpt lat="44.40225" lon="3.90722">
        <ele>1109.58</ele>
        <time>2017-09-29T10:10:41Z</time>
      </trkpt>
      <trkpt lat="44.40207" lon="3.90711">
        <ele>1109.64</ele>
        <time>2017-09-29T10:11:27Z</time>
      </trkpt>
      <trkpt lat="44.40189" lon="3.90706">
        <ele>1101.7</ele>
        <time>2017-09-29T10:12:03Z</time>
      </trkpt>
      <trkpt lat="44.40173" lon="3.90691">
        <ele>1094.06</ele>
        <time>2017-09-29T10:12:29Z</time>
      </trkpt>
      <trkpt lat="44.40154" lon="3.9069">
        <ele>1095.08</ele>
        <time>2017-09-29T10:12:42Z</time>
      </trkpt>
      <trkpt lat="44.40138" lon="3.90705">
        <ele>1096.71</ele>
        <time>2017-09-29T10:13:09Z</time>
      </trkpt>
      <trkpt lat="44.40122" lon="3.90694">
        <ele>1099.7</ele>
        <time>2017-09-29T10:13:35Z</time>
      </trkpt>
      <trkpt lat="44.40104" lon="3.90691">
        <ele>1093.76</ele>
        <time>2017-09-29T10:14:26Z</time>
      </trkpt>
      <trkpt lat="44.40087" lon="3.90706">
        <ele>1092.49</ele>
        <time>2017-09-29T10:14:41Z</time>
      </trkpt>
      <trkpt lat="44.4007" lon="3.90716">
        <ele>1095.84</ele>
        <time>2017-09-29T10:14:55Z</time>
      </trkpt>
      <trkpt lat="44.40088" lon="3.9071">
        <ele>1094.84</ele>
        <time>2017-09-29T10:18:41Z</time>
      </trkpt>
      <trkpt lat="44.40103" lon="3.90695">
        <ele>1095.69</ele>
        <time>2017-09-29T10:19:01Z</time>
      </trkpt>
      <trkpt lat="44.40113" lon="3.90674">
        <ele>1096.27</ele>
        <time>2017-09-29T11:17:36Z</time>
      </trkpt>
      <trkpt lat="44.40129" lon="3.90659">
        <ele>1086.83</ele>
        <time>2017-09-29T11:17:57Z</time>
      </trkpt>
      <trkpt lat="44.40111" lon="3.90666">
        <ele>1093.6</ele>
        <time>2017-09-29T11:19:53Z</time>
      </trkpt>
      <trkpt lat="44.40111" lon="3.90692">
        <ele>1098.98</ele>
        <time>2017-09-29T11:20:28Z</time>
      </trkpt>
      <trkpt lat="44.40095" lon="3.90676">
        <ele>1095.59</ele>
        <time>2017-09-29T11:29:45Z</time>
      </trkpt>
      <trkpt lat="44.40109" lon="3.90691">
        <ele>1091.9</ele>
        <time>2017-09-29T11:30:26Z</time>
      </trkpt>
      <trkpt lat="44.40092" lon="3.90699">
        <ele>1089.83</ele>
        <time>2017-09-29T11:34:58Z</time>
      </trkpt>
      <trkpt lat="44.4008" lon="3.90719">
        <ele>1094.7</ele>
        <time>2017-09-29T11:35:18Z</time>
      </trkpt>
      <trkpt lat="44.40082" lon="3.90744">
        <ele>1094.38</ele>
        <time>2017-09-29T11:35:43Z</time>
      </trkpt>
      <trkpt lat="44.40085" lon="3.90771">
        <ele>1091.29</ele>
        <time>2017-09-29T11:36:09Z</time>
      </trkpt>
      <trkpt lat="44.40092" lon="3.90794">
        <ele>1089.69</ele>
        <time>2017-09-29T11:36:26Z</time>
      </trkpt>
      <trkpt lat="44.40105" lon="3.90815">
        <ele>1086.98</ele>
        <time>2017-09-29T11:36:51Z</time>
      </trkpt>
      <trkpt lat="44.40121" lon="3.90827">
        <ele>1090.94</ele>
        <time>2017-09-29T11:37:10Z</time>
      </trkpt>
      <trkpt lat="44.40139" lon="3.90828">
        <ele>1086.78</ele>
        <time>2017-09-29T11:37:25Z</time>
      </trkpt>
      <trkpt lat="44.40157" lon="3.90835">
        <ele>1084.99</ele>
        <time>2017-09-29T11:37:41Z</time>
      </trkpt>
      <trkpt lat="44.40174" lon="3.9085">
        <ele>1088.31</ele>
        <time>2017-09-29T11:38:05Z</time>
      </trkpt>
      <trkpt lat="44.4019" lon="3.90862">
        <ele>1083.77</ele>
        <time>2017-09-29T11:38:48Z</time>
      </trkpt>
      <trkpt lat="44.40206" lon="3.90874">
        <ele>1077.81</ele>
        <time>2017-09-29T11:39:11Z</time>
      </trkpt>
      <trkpt lat="44.40211" lon="3.909">
        <ele>1078.76</ele>
        <time>2017-09-29T11:39:28Z</time>
      </trkpt>
      <trkpt lat="44.40223" lon="3.9092">
        <ele>1082.59</ele>
        <time>2017-09-29T11:39:43Z</time>
      </trkpt>
      <trkpt lat="44.40221" lon="3.90947">
        <ele>1085.74</ele>
        <time>2017-09-29T11:40:08Z</time>
      </trkpt>
      <trkpt lat="44.40228" lon="3.90971">
        <ele>1084.93</ele>
        <time>2017-09-29T11:40:36Z</time>
      </trkpt>
      <trkpt lat="44.40229" lon="3.90997">
        <ele>1083.67</ele>
        <time>2017-09-29T11:41:03Z</time>
      </trkpt>
      <trkpt lat="44.40235" lon="3.91022">
        <ele>1080.02</ele>
        <time>2017-09-29T11:41:22Z</time>
      </trkpt>
      <trkpt lat="44.40246" lon="3.91046">
        <ele>1080.81</ele>
        <time>2017-09-29T11:41:41Z</time>
      </trkpt>
      <trkpt lat="44.40259" lon="3.91066">
        <ele>1076.61</ele>
        <time>2017-09-29T11:41:59Z</time>
      </trkpt>
      <trkpt lat="44.40269" lon="3.91087">
        <ele>1073.9</ele>
        <time>2017-09-29T11:42:14Z</time>
      </trkpt>
      <trkpt lat="44.40279" lon="3.91109">
        <ele>1078.08</ele>
        <time>2017-09-29T11:42:31Z</time>
      </trkpt>
      <trkpt lat="44.4029" lon="3.91129">
        <ele>1078.66</ele>
        <time>2017-09-29T11:42:56Z</time>
      </trkpt>
      <trkpt lat="44.40292" lon="3.91154">
        <ele>1080.61</ele>
        <time>2017-09-29T11:43:20Z</time>
      </trkpt>
      <trkpt lat="44.40288" lon="3.91179">
        <ele>1084.65</ele>
        <time>2017-09-29T11:43:33Z</time>
      </trkpt>
      <trkpt lat="44.4029" lon="3.91205">
        <ele>1080.81</ele>
        <time>2017-09-29T11:43:54Z</time>
      </trkpt>
      <trkpt lat="44.40292" lon="3.91232">
        <ele>1076.01</ele>
        <time>2017-09-29T11:44:35Z</time>
      </trkpt>
      <trkpt lat="44.40296" lon="3.91258">
        <ele>1073.31</ele>
        <time>2017-09-29T11:44:51Z</time>
      </trkpt>
      <trkpt lat="44.40301" lon="3.91283">
        <ele>1075.68</ele>
        <time>2017-09-29T11:45:09Z</time>
      </trkpt>
      <trkpt lat="44.40305" lon="3.91308">
        <ele>1077.77</ele>
        <time>2017-09-29T11:45:26Z</time>
      </trkpt>
      <trkpt lat="44.40304" lon="3.91333">
        <ele>1077.67</ele>
        <time>2017-09-29T11:45:40Z</time>
      </trkpt>
      <trkpt lat="44.40316" lon="3.91353">
        <ele>1072.72</ele>
        <time>2017-09-29T11:47:16Z</time>
      </trkpt>
      <trkpt lat="44.40335" lon="3.91356">
        <ele>1074.62</ele>
        <time>2017-09-29T11:47:48Z</time>
      </trkpt>
      <trkpt lat="44.4035" lon="3.91369">
        <ele>1074.59</ele>
        <time>2017-09-29T11:48:00Z</time>
      </trkpt>
      <trkpt lat="44.40361" lon="3.91391">
        <ele>1080.69</ele>
        <time>2017-09-29T11:48:27Z</time>
      </trkpt>
      <trkpt lat="44.4037" lon="3.91413">
        <ele>1085.92</ele>
        <time>2017-09-29T11:48:45Z</time>
      </trkpt>
      <trkpt lat="44.40368" lon="3.91442">
        <ele>1082.39</ele>
        <time>2017-09-29T11:49:05Z</time>
      </trkpt>
      <trkpt lat="44.40365" lon="3.91469">
        <ele>1075.64</ele>
        <time>2017-09-29T11:49:28Z</time>
      </trkpt>
      <trkpt lat="44.40356" lon="3.91493">
        <ele>1066.39</ele>
        <time>2017-09-29T11:49:48Z</time>
      </trkpt>
      <trkpt lat="44.40351" lon="3.91517">
        <ele>1065.75</ele>
        <time>2017-09-29T11:50:06Z</time>
      </trkpt>
      <trkpt lat="44.40348" lon="3.91544">
        <ele>1071.29</ele>
        <time>2017-09-29T11:50:25Z</time>
      </trkpt>
      <trkpt lat="44.4035" lon="3.91569">
        <ele>1070.7</ele>
        <time>2017-09-29T11:50:41Z</time>
      </trkpt>
      <trkpt lat="44.40352" lon="3.91594">
        <ele>1073.41</ele>
        <time>2017-09-29T11:51:01Z</time>
      </trkpt>
      <trkpt lat="44.40349" lon="3.9162">
        <ele>1073.85</ele>
        <time>2017-09-29T11:51:17Z</time>
      </trkpt>
      <trkpt lat="44.40348" lon="3.91646">
        <ele>1072.36</ele>
        <time>2017-09-29T11:51:35Z</time>
      </trkpt>
      <trkpt lat="44.40352" lon="3.91672">
        <ele>1074.39</ele>
        <time>2017-09-29T11:51:53Z</time>
      </trkpt>
      <trkpt lat="44.40357" lon="3.91697">
        <ele>1076.57</ele>
        <time>2017-09-29T11:52:13Z</time>
      </trkpt>
      <trkpt lat="44.4036" lon="3.91724">
        <ele>1076.69</ele>
        <time>2017-09-29T11:52:26Z</time>
      </trkpt>
      <trkpt lat="44.40369" lon="3.91747">
        <ele>1077.71</ele>
        <time>2017-09-29T11:52:48Z</time>
      </trkpt>
      <trkpt lat="44.40382" lon="3.91768">
        <ele>1069.23</ele>
        <time>2017-09-29T11:53:12Z</time>
      </trkpt>
      <trkpt lat="44.40394" lon="3.91789">
        <ele>1069.66</ele>
        <time>2017-09-29T11:53:26Z</time>
      </trkpt>
      <trkpt lat="44.40403" lon="3.91812">
        <ele>1076.26</ele>
        <time>2017-09-29T11:53:42Z</time>
      </trkpt>
      <trkpt lat="44.40415" lon="3.91832">
        <ele>1079.3</ele>
        <time>2017-09-29T11:54:14Z</time>
      </trkpt>
      <trkpt lat="44.40433" lon="3.9183">
        <ele>1077.7</ele>
        <time>2017-09-29T11:54:42Z</time>
      </trkpt>
      <trkpt lat="44.40444" lon="3.91809">
        <ele>1075.35</ele>
        <time>2017-09-29T11:55:08Z</time>
      </trkpt>
      <trkpt lat="44.40458" lon="3.91793">
        <ele>1082.34</ele>
        <time>2017-09-29T11:55:45Z</time>
      </trkpt>
      <trkpt lat="44.40466" lon="3.9177">
        <ele>1086.77</ele>
        <time>2017-09-29T11:56:23Z</time>
      </trkpt>
      <trkpt lat="44.40474" lon="3.91746">
        <ele>1087.48</ele>
        <time>2017-09-29T11:56:53Z</time>
      </trkpt>
      <trkpt lat="44.40486" lon="3.91727">
        <ele>1094.68</ele>
        <time>2017-09-29T11:58:00Z</time>
      </trkpt>
      <trkpt lat="44.405" lon="3.91709">
        <ele>1102.36</ele>
        <time>2017-09-29T11:58:24Z</time>
      </trkpt>
      <trkpt lat="44.40516" lon="3.91721">
        <ele>1108.77</ele>
        <time>2017-09-29T12:02:09Z</time>
      </trkpt>
      <trkpt lat="44.40521" lon="3.91745">
        <ele>1111.68</ele>
        <time>2017-09-29T12:02:31Z</time>
      </trkpt>
      <trkpt lat="44.40536" lon="3.9176">
        <ele>1111.69</ele>
        <time>2017-09-29T12:02:58Z</time>
      </trkpt>
      <trkpt lat="44.40553" lon="3.9177">
        <ele>1110.17</ele>
        <time>2017-09-29T12:03:16Z</time>
      </trkpt>
      <trkpt lat="44.40573" lon="3.91766">
        <ele>1108.99</ele>
        <time>2017-09-29T12:03:35Z</time>
      </trkpt>
      <trkpt lat="44.4059" lon="3.91776">
        <ele>1100.95</ele>
        <time>2017-09-29T12:03:51Z</time>
      </trkpt>
      <trkpt lat="44.40593" lon="3.91751">
        <ele>1101.69</ele>
        <time>2017-09-29T12:04:17Z</time>
      </trkpt>
      <trkpt lat="44.40594" lon="3.91725">
        <ele>1097.67</ele>
        <time>2017-09-29T12:04:36Z</time>
      </trkpt>
      <trkpt lat="44.40598" lon="3.917">
        <ele>1092.61</ele>
        <time>2017-09-29T12:05:00Z</time>
      </trkpt>
      <trkpt lat="44.40616" lon="3.91695">
        <ele>1087.97</ele>
        <time>2017-09-29T12:05:57Z</time>
      </trkpt>
      <trkpt lat="44.40633" lon="3.91704">
        <ele>1093.63</ele>
        <time>2017-09-29T12:06:44Z</time>
      </trkpt>
      <trkpt lat="44.40651" lon="3.91715">
        <ele>1088.31</ele>
        <time>2017-09-29T12:07:02Z</time>
      </trkpt>
      <trkpt lat="44.40669" lon="3.9172">
        <ele>1082.4</ele>
        <time>2017-09-29T12:08:00Z</time>
      </trkpt>
      <trkpt lat="44.40687" lon="3.91732">
        <ele>1082.72</ele>
        <time>2017-09-29T12:08:28Z</time>
      </trkpt>
      <trkpt lat="44.40703" lon="3.91744">
        <ele>1074.08</ele>
        <time>2017-09-29T12:10:09Z</time>
      </trkpt>
      <trkpt lat="44.40719" lon="3.91757">
        <ele>1073.71</ele>
        <time>2017-09-29T12:10:30Z</time>
      </trkpt>
      <trkpt lat="44.40731" lon="3.91777">
        <ele>1070.31</ele>
        <time>2017-09-29T12:10:49Z</time>
      </trkpt>
      <trkpt lat="44.40746" lon="3.91794">
        <ele>1071.51</ele>
        <time>2017-09-29T12:11:06Z</time>
      </trkpt>
      <trkpt lat="44.40755" lon="3.91819">
        <ele>1066.73</ele>
        <time>2017-09-29T12:11:25Z</time>
      </trkpt>
      <trkpt lat="44.40771" lon="3.91837">
        <ele>1064.51</ele>
        <time>2017-09-29T12:11:48Z</time>
      </trkpt>
      <trkpt lat="44.40787" lon="3.91855">
        <ele>1057.91</ele>
        <time>2017-09-29T12:12:09Z</time>
      </trkpt>
      <trkpt lat="44.40801" lon="3.91872">
        <ele>1058.42</ele>
        <time>2017-09-29T12:12:35Z</time>
      </trkpt>
      <trkpt lat="44.40818" lon="3.91882">
        <ele>1057.78</ele>
        <time>2017-09-29T12:12:52Z</time>
      </trkpt>
      <trkpt lat="44.40834" lon="3.91894">
        <ele>1052.66</ele>
        <time>2017-09-29T12:13:16Z</time>
      </trkpt>
      <trkpt lat="44.40851" lon="3.91907">
        <ele>1047.69</ele>
        <time>2017-09-29T12:13:40Z</time>
      </trkpt>
      <trkpt lat="44.40867" lon="3.91919">
        <ele>1050.45</ele>
        <time>2017-09-29T12:14:04Z</time>
      </trkpt>
      <trkpt lat="44.40884" lon="3.91932">
        <ele>1049.9</ele>
        <time>2017-09-29T12:14:25Z</time>
      </trkpt>
      <trkpt lat="44.40901" lon="3.91943">
        <ele>1041.37</ele>
        <time>2017-09-29T12:14:53Z</time>
      </trkpt>
      <trkpt lat="44.4092" lon="3.91947">
        <ele>1041.27</ele>
        <time>2017-09-29T12:15:07Z</time>
      </trkpt>
      <trkpt lat="44.40939" lon="3.91949">
        <ele>1039.69</ele>
        <time>2017-09-29T12:15:26Z</time>
      </trkpt>
      <trkpt lat="44.40958" lon="3.91944">
        <ele>1040.68</ele>
        <time>2017-09-29T12:15:50Z</time>
      </trkpt>
      <trkpt lat="44.40978" lon="3.91943">
        <ele>1046.38</ele>
        <time>2017-09-29T12:16:16Z</time>
      </trkpt>
      <trkpt lat="44.40996" lon="3.91935">
        <ele>1047.64</ele>
        <time>2017-09-29T12:16:37Z</time>
      </trkpt>
      <trkpt lat="44.41014" lon="3.91931">
        <ele>1045.02</ele>
        <time>2017-09-29T12:22:23Z</time>
      </trkpt>
      <trkpt lat="44.41031" lon="3.91921">
        <ele>1042.76</ele>
        <time>2017-09-29T12:22:41Z</time>
      </trkpt>
      <trkpt lat="44.41049" lon="3.91914">
        <ele>1046.27</ele>
        <time>2017-09-29T12:22:57Z</time>
      </trkpt>
      <trkpt lat="44.41067" lon="3.91906">
        <ele>1046.68</ele>
        <time>2017-09-29T12:23:14Z</time>
      </trkpt>
      <trkpt lat="44.41084" lon="3.91895">
        <ele>1044.7</ele>
        <time>2017-09-29T12:23:33Z</time>
      </trkpt>
      <trkpt lat="44.41101" lon="3.91884">
        <ele>1043.96</ele>
        <time>2017-09-29T12:23:50Z</time>
      </trkpt>
      <trkpt lat="44.4112" lon="3.91876">
        <ele>1047.6</ele>
        <time>2017-09-29T12:24:07Z</time>
      </trkpt>
      <trkpt lat="44.41136" lon="3.91866">
        <ele>1045.69</ele>
        <time>2017-09-29T12:24:26Z</time>
      </trkpt>
      <trkpt lat="44.41153" lon="3.91856">
        <ele>1049.48</ele>
        <time>2017-09-29T12:24:46Z</time>
      </trkpt>
      <trkpt lat="44.4117" lon="3.91845">
        <ele>1047.88</ele>
        <time>2017-09-29T12:25:07Z</time>
      </trkpt>
      <trkpt lat="44.41186" lon="3.91834">
        <ele>1055.59</ele>
        <time>2017-09-29T12:25:23Z</time>
      </trkpt>
      <trkpt lat="44.41203" lon="3.91824">
        <ele>1052.98</ele>
        <time>2017-09-29T12:25:42Z</time>
      </trkpt>
      <trkpt lat="44.4122" lon="3.91814">
        <ele>1045</ele>
        <time>2017-09-29T12:26:00Z</time>
      </trkpt>
      <trkpt lat="44.41238" lon="3.91808">
        <ele>1046.19</ele>
        <time>2017-09-29T12:26:17Z</time>
      </trkpt>
      <trkpt lat="44.41257" lon="3.91811">
        <ele>1054.68</ele>
        <time>2017-09-29T12:29:31Z</time>
      </trkpt>
      <trkpt lat="44.41275" lon="3.9181">
        <ele>1052.07</ele>
        <time>2017-09-29T12:29:54Z</time>
      </trkpt>
      <trkpt lat="44.41293" lon="3.91808">
        <ele>1051</ele>
        <time>2017-09-29T12:30:17Z</time>
      </trkpt>
      <trkpt lat="44.41311" lon="3.91806">
        <ele>1045.79</ele>
        <time>2017-09-29T12:30:36Z</time>
      </trkpt>
      <trkpt lat="44.4133" lon="3.91806">
        <ele>1037.06</ele>
        <time>2017-09-29T12:30:58Z</time>
      </trkpt>
      <trkpt lat="44.41348" lon="3.91807">
        <ele>1037.72</ele>
        <time>2017-09-29T12:31:22Z</time>
      </trkpt>
      <trkpt lat="44.41366" lon="3.91801">
        <ele>1037.72</ele>
        <time>2017-09-29T12:31:45Z</time>
      </trkpt>
      <trkpt lat="44.41384" lon="3.91797">
        <ele>1033.21</ele>
        <time>2017-09-29T12:32:05Z</time>
      </trkpt>
      <trkpt lat="44.41402" lon="3.91794">
        <ele>1018.41</ele>
        <time>2017-09-29T12:32:39Z</time>
      </trkpt>
      <trkpt lat="44.4142" lon="3.91792">
        <ele>1016.14</ele>
        <time>2017-09-29T12:33:02Z</time>
      </trkpt>
      <trkpt lat="44.41439" lon="3.91794">
        <ele>1010.82</ele>
        <time>2017-09-29T12:33:27Z</time>
      </trkpt>
      <trkpt lat="44.41457" lon="3.91793">
        <ele>1006.36</ele>
        <time>2017-09-29T12:34:03Z</time>
      </trkpt>
      <trkpt lat="44.41476" lon="3.91793">
        <ele>1004.84</ele>
        <time>2017-09-29T12:34:55Z</time>
      </trkpt>
      <trkpt lat="44.41494" lon="3.91797">
        <ele>999.72</ele>
        <time>2017-09-29T12:35:10Z</time>
      </trkpt>
      <trkpt lat="44.41513" lon="3.91803">
        <ele>996.74</ele>
        <time>2017-09-29T12:35:36Z</time>
      </trkpt>
      <trkpt lat="44.4153" lon="3.91811">
        <ele>994.78</ele>
        <time>2017-09-29T12:35:55Z</time>
      </trkpt>
      <trkpt lat="44.41549" lon="3.9181">
        <ele>991.88</ele>
        <time>2017-09-29T12:36:11Z</time>
      </trkpt>
      <trkpt lat="44.41567" lon="3.91815">
        <ele>993.89</ele>
        <time>2017-09-29T12:36:29Z</time>
      </trkpt>
      <trkpt lat="44.41585" lon="3.91821">
        <ele>997.76</ele>
        <time>2017-09-29T12:36:49Z</time>
      </trkpt>
      <trkpt lat="44.41604" lon="3.91826">
        <ele>1000.26</ele>
        <time>2017-09-29T12:37:05Z</time>
      </trkpt>
      <trkpt lat="44.41622" lon="3.91827">
        <ele>993.02</ele>
        <time>2017-09-29T12:37:20Z</time>
      </trkpt>
      <trkpt lat="44.41641" lon="3.91832">
        <ele>999</ele>
        <time>2017-09-29T12:37:40Z</time>
      </trkpt>
      <trkpt lat="44.41659" lon="3.91833">
        <ele>999.69</ele>
        <time>2017-09-29T12:37:58Z</time>
      </trkpt>
      <trkpt lat="44.41675" lon="3.91844">
        <ele>999.78</ele>
        <time>2017-09-29T12:38:14Z</time>
      </trkpt>
      <trkpt lat="44.41694" lon="3.9184">
        <ele>999.62</ele>
        <time>2017-09-29T12:38:27Z</time>
      </trkpt>
      <trkpt lat="44.41712" lon="3.91845">
        <ele>998.57</ele>
        <time>2017-09-29T12:38:42Z</time>
      </trkpt>
      <trkpt lat="44.4173" lon="3.91852">
        <ele>997.48</ele>
        <time>2017-09-29T12:38:57Z</time>
      </trkpt>
      <trkpt lat="44.41749" lon="3.91854">
        <ele>994.69</ele>
        <time>2017-09-29T12:39:10Z</time>
      </trkpt>
      <trkpt lat="44.41768" lon="3.91861">
        <ele>987.98</ele>
        <time>2017-09-29T12:39:26Z</time>
      </trkpt>
      <trkpt lat="44.41785" lon="3.91868">
        <ele>989.45</ele>
        <time>2017-09-29T12:39:43Z</time>
      </trkpt>
      <trkpt lat="44.41802" lon="3.91882">
        <ele>994.9</ele>
        <time>2017-09-29T12:40:03Z</time>
      </trkpt>
      <trkpt lat="44.4182" lon="3.91887">
        <ele>994.52</ele>
        <time>2017-09-29T12:40:16Z</time>
      </trkpt>
      <trkpt lat="44.41839" lon="3.91888">
        <ele>996.69</ele>
        <time>2017-09-29T12:42:06Z</time>
      </trkpt>
      <trkpt lat="44.41859" lon="3.9189">
        <ele>998.69</ele>
        <time>2017-09-29T12:42:26Z</time>
      </trkpt>
      <trkpt lat="44.41879" lon="3.9189">
        <ele>998.88</ele>
        <time>2017-09-29T12:42:46Z</time>
      </trkpt>
      <trkpt lat="44.41898" lon="3.91887">
        <ele>998.54</ele>
        <time>2017-09-29T12:43:09Z</time>
      </trkpt>
      <trkpt lat="44.41916" lon="3.91885">
        <ele>999.61</ele>
        <time>2017-09-29T12:43:25Z</time>
      </trkpt>
      <trkpt lat="44.41935" lon="3.91887">
        <ele>1007.32</ele>
        <time>2017-09-29T12:43:46Z</time>
      </trkpt>
      <trkpt lat="44.41952" lon="3.91889">
        <ele>1007.69</ele>
        <time>2017-09-29T12:44:01Z</time>
      </trkpt>
      <trkpt lat="44.41969" lon="3.919">
        <ele>1003.69</ele>
        <time>2017-09-29T12:44:22Z</time>
      </trkpt>
      <trkpt lat="44.41984" lon="3.91914">
        <ele>1000.3</ele>
        <time>2017-09-29T12:44:45Z</time>
      </trkpt>
      <trkpt lat="44.42" lon="3.91928">
        <ele>999.4</ele>
        <time>2017-09-29T12:45:01Z</time>
      </trkpt>
      <trkpt lat="44.42016" lon="3.9194">
        <ele>997.94</ele>
        <time>2017-09-29T12:45:19Z</time>
      </trkpt>
      <trkpt lat="44.42029" lon="3.91959">
        <ele>995.02</ele>
        <time>2017-09-29T12:45:37Z</time>
      </trkpt>
      <trkpt lat="44.42044" lon="3.91974">
        <ele>992</ele>
        <time>2017-09-29T12:46:01Z</time>
      </trkpt>
      <trkpt lat="44.42059" lon="3.91988">
        <ele>988.57</ele>
        <time>2017-09-29T12:46:17Z</time>
      </trkpt>
      <trkpt lat="44.42072" lon="3.92005">
        <ele>983.75</ele>
        <time>2017-09-29T12:46:39Z</time>
      </trkpt>
      <trkpt lat="44.4209" lon="3.92012">
        <ele>982.7</ele>
        <time>2017-09-29T12:47:03Z</time>
      </trkpt>
      <trkpt lat="44.42106" lon="3.92025">
        <ele>979.71</ele>
        <time>2017-09-29T12:47:30Z</time>
      </trkpt>
      <trkpt lat="44.42123" lon="3.92037">
        <ele>970.48</ele>
        <time>2017-09-29T12:47:51Z</time>
      </trkpt>
      <trkpt lat="44.42137" lon="3.92053">
        <ele>969.88</ele>
        <time>2017-09-29T12:48:09Z</time>
      </trkpt>
      <trkpt lat="44.42153" lon="3.92068">
        <ele>970.78</ele>
        <time>2017-09-29T12:48:46Z</time>
      </trkpt>
      <trkpt lat="44.42168" lon="3.92082">
        <ele>967.74</ele>
        <time>2017-09-29T12:49:06Z</time>
      </trkpt>
      <trkpt lat="44.42183" lon="3.92098">
        <ele>970.69</ele>
        <time>2017-09-29T12:49:22Z</time>
      </trkpt>
      <trkpt lat="44.42197" lon="3.92114">
        <ele>970.91</ele>
        <time>2017-09-29T12:49:40Z</time>
      </trkpt>
      <trkpt lat="44.4221" lon="3.92133">
        <ele>968.68</ele>
        <time>2017-09-29T12:49:58Z</time>
      </trkpt>
      <trkpt lat="44.42226" lon="3.92147">
        <ele>966.4</ele>
        <time>2017-09-29T12:50:13Z</time>
      </trkpt>
      <trkpt lat="44.42243" lon="3.9216">
        <ele>966.69</ele>
        <time>2017-09-29T12:50:38Z</time>
      </trkpt>
      <trkpt lat="44.4226" lon="3.92173">
        <ele>966.66</ele>
        <time>2017-09-29T12:51:01Z</time>
      </trkpt>
      <trkpt lat="44.42273" lon="3.92191">
        <ele>969.69</ele>
        <time>2017-09-29T12:51:17Z</time>
      </trkpt>
      <trkpt lat="44.42286" lon="3.92209">
        <ele>974.7</ele>
        <time>2017-09-29T12:51:42Z</time>
      </trkpt>
      <trkpt lat="44.42301" lon="3.92225">
        <ele>976.68</ele>
        <time>2017-09-29T12:51:59Z</time>
      </trkpt>
      <trkpt lat="44.42319" lon="3.92236">
        <ele>977.69</ele>
        <time>2017-09-29T12:52:15Z</time>
      </trkpt>
      <trkpt lat="44.42337" lon="3.92243">
        <ele>976.69</ele>
        <time>2017-09-29T12:52:28Z</time>
      </trkpt>
      <trkpt lat="44.42356" lon="3.9224">
        <ele>976.75</ele>
        <time>2017-09-29T12:52:45Z</time>
      </trkpt>
      <trkpt lat="44.42373" lon="3.92246">
        <ele>977.37</ele>
        <time>2017-09-29T12:53:14Z</time>
      </trkpt>
      <trkpt lat="44.4239" lon="3.9226">
        <ele>977.68</ele>
        <time>2017-09-29T12:53:39Z</time>
      </trkpt>
      <trkpt lat="44.42403" lon="3.92278">
        <ele>981.68</ele>
        <time>2017-09-29T12:53:51Z</time>
      </trkpt>
      <trkpt lat="44.42419" lon="3.9229">
        <ele>980.92</ele>
        <time>2017-09-29T12:54:12Z</time>
      </trkpt>
      <trkpt lat="44.42437" lon="3.923">
        <ele>977.54</ele>
        <time>2017-09-29T12:54:25Z</time>
      </trkpt>
      <trkpt lat="44.42455" lon="3.92303">
        <ele>976.38</ele>
        <time>2017-09-29T12:54:41Z</time>
      </trkpt>
      <trkpt lat="44.42473" lon="3.92309">
        <ele>980.68</ele>
        <time>2017-09-29T12:54:59Z</time>
      </trkpt>
      <trkpt lat="44.42491" lon="3.92314">
        <ele>978.6</ele>
        <time>2017-09-29T12:55:18Z</time>
      </trkpt>
      <trkpt lat="44.42509" lon="3.92314">
        <ele>980.57</ele>
        <time>2017-09-29T12:55:32Z</time>
      </trkpt>
      <trkpt lat="44.42528" lon="3.92316">
        <ele>983.56</ele>
        <time>2017-09-29T12:55:45Z</time>
      </trkpt>
      <trkpt lat="44.42545" lon="3.92323">
        <ele>984.41</ele>
        <time>2017-09-29T12:56:05Z</time>
      </trkpt>
      <trkpt lat="44.42538" lon="3.92297">
        <ele>990.56</ele>
        <time>2017-09-29T12:58:03Z</time>
      </trkpt>
      <trkpt lat="44.42551" lon="3.92316">
        <ele>988.99</ele>
        <time>2017-09-29T12:58:19Z</time>
      </trkpt>
      <trkpt lat="44.42565" lon="3.92332">
        <ele>982.57</ele>
        <time>2017-09-29T13:17:37Z</time>
      </trkpt>
      <trkpt lat="44.42574" lon="3.92354">
        <ele>978.3</ele>
        <time>2017-09-29T13:18:07Z</time>
      </trkpt>
      <trkpt lat="44.42591" lon="3.92364">
        <ele>974.7</ele>
        <time>2017-09-29T13:18:25Z</time>
      </trkpt>
      <trkpt lat="44.42606" lon="3.92379">
        <ele>974.6</ele>
        <time>2017-09-29T13:18:42Z</time>
      </trkpt>
      <trkpt lat="44.42624" lon="3.92383">
        <ele>969.96</ele>
        <time>2017-09-29T13:19:10Z</time>
      </trkpt>
      <trkpt lat="44.42644" lon="3.92382">
        <ele>967.75</ele>
        <time>2017-09-29T13:19:29Z</time>
      </trkpt>
      <trkpt lat="44.42662" lon="3.9239">
        <ele>959.04</ele>
        <time>2017-09-29T13:20:01Z</time>
      </trkpt>
      <trkpt lat="44.4268" lon="3.92395">
        <ele>954.85</ele>
        <time>2017-09-29T13:20:37Z</time>
      </trkpt>
      <trkpt lat="44.42698" lon="3.92391">
        <ele>948.71</ele>
        <time>2017-09-29T13:21:06Z</time>
      </trkpt>
      <trkpt lat="44.42716" lon="3.92398">
        <ele>944.69</ele>
        <time>2017-09-29T13:21:31Z</time>
      </trkpt>
      <trkpt lat="44.42734" lon="3.92395">
        <ele>941.29</ele>
        <time>2017-09-29T13:22:00Z</time>
      </trkpt>
      <trkpt lat="44.42751" lon="3.92403">
        <ele>937.35</ele>
        <time>2017-09-29T13:22:27Z</time>
      </trkpt>
      <trkpt lat="44.4277" lon="3.92401">
        <ele>938.55</ele>
        <time>2017-09-29T13:22:47Z</time>
      </trkpt>
      <trkpt lat="44.42789" lon="3.92403">
        <ele>921.39</ele>
        <time>2017-09-29T13:23:42Z</time>
      </trkpt>
      <trkpt lat="44.42808" lon="3.92406">
        <ele>926.38</ele>
        <time>2017-09-29T13:24:33Z</time>
      </trkpt>
      <trkpt lat="44.42827" lon="3.92403">
        <ele>916.6</ele>
        <time>2017-09-29T13:24:47Z</time>
      </trkpt>
      <trkpt lat="44.42844" lon="3.92408">
        <ele>911.62</ele>
        <time>2017-09-29T13:25:22Z</time>
      </trkpt>
      <trkpt lat="44.42863" lon="3.92408">
        <ele>903.69</ele>
        <time>2017-09-29T13:25:39Z</time>
      </trkpt>
      <trkpt lat="44.42882" lon="3.92411">
        <ele>905.56</ele>
        <time>2017-09-29T13:25:59Z</time>
      </trkpt>
      <trkpt lat="44.429" lon="3.92413">
        <ele>895.9</ele>
        <time>2017-09-29T13:26:31Z</time>
      </trkpt>
      <trkpt lat="44.42919" lon="3.92412">
        <ele>892.66</ele>
        <time>2017-09-29T13:26:59Z</time>
      </trkpt>
      <trkpt lat="44.42936" lon="3.92422">
        <ele>889.72</ele>
        <time>2017-09-29T13:27:16Z</time>
      </trkpt>
      <trkpt lat="44.42954" lon="3.92416">
        <ele>881.69</ele>
        <time>2017-09-29T13:27:39Z</time>
      </trkpt>
      <trkpt lat="44.42972" lon="3.92417">
        <ele>886.38</ele>
        <time>2017-09-29T13:28:02Z</time>
      </trkpt>
      <trkpt lat="44.42991" lon="3.9242">
        <ele>878.41</ele>
        <time>2017-09-29T13:29:11Z</time>
      </trkpt>
      <trkpt lat="44.43009" lon="3.92427">
        <ele>875.55</ele>
        <time>2017-09-29T13:29:29Z</time>
      </trkpt>
      <trkpt lat="44.43027" lon="3.92422">
        <ele>879.44</ele>
        <time>2017-09-29T13:29:44Z</time>
      </trkpt>
      <trkpt lat="44.43046" lon="3.9242">
        <ele>874.3</ele>
        <time>2017-09-29T13:30:00Z</time>
      </trkpt>
      <trkpt lat="44.43064" lon="3.92418">
        <ele>869.72</ele>
        <time>2017-09-29T13:30:23Z</time>
      </trkpt>
      <trkpt lat="44.43082" lon="3.92413">
        <ele>864.9</ele>
        <time>2017-09-29T13:30:43Z</time>
      </trkpt>
      <trkpt lat="44.43101" lon="3.92415">
        <ele>863.79</ele>
        <time>2017-09-29T13:30:59Z</time>
      </trkpt>
      <trkpt lat="44.43119" lon="3.92414">
        <ele>863.62</ele>
        <time>2017-09-29T13:31:21Z</time>
      </trkpt>
      <trkpt lat="44.43137" lon="3.92406">
        <ele>863.67</ele>
        <time>2017-09-29T13:31:37Z</time>
      </trkpt>
      <trkpt lat="44.43155" lon="3.92409">
        <ele>857.07</ele>
        <time>2017-09-29T13:31:56Z</time>
      </trkpt>
      <trkpt lat="44.43174" lon="3.92407">
        <ele>857.69</ele>
        <time>2017-09-29T13:32:14Z</time>
      </trkpt>
      <trkpt lat="44.43192" lon="3.92402">
        <ele>854.77</ele>
        <time>2017-09-29T13:32:39Z</time>
      </trkpt>
      <trkpt lat="44.4321" lon="3.92409">
        <ele>853.27</ele>
        <time>2017-09-29T13:32:59Z</time>
      </trkpt>
      <trkpt lat="44.43228" lon="3.92408">
        <ele>858.8</ele>
        <time>2017-09-29T13:33:17Z</time>
      </trkpt>
      <trkpt lat="44.43246" lon="3.9241">
        <ele>856.69</ele>
        <time>2017-09-29T13:33:36Z</time>
      </trkpt>
      <trkpt lat="44.43264" lon="3.924">
        <ele>853.57</ele>
        <time>2017-09-29T13:33:51Z</time>
      </trkpt>
      <trkpt lat="44.43283" lon="3.92397">
        <ele>852.72</ele>
        <time>2017-09-29T13:34:09Z</time>
      </trkpt>
      <trkpt lat="44.43301" lon="3.92405">
        <ele>850.9</ele>
        <time>2017-09-29T13:34:32Z</time>
      </trkpt>
      <trkpt lat="44.43318" lon="3.92413">
        <ele>849.39</ele>
        <time>2017-09-29T13:35:06Z</time>
      </trkpt>
      <trkpt lat="44.43333" lon="3.92431">
        <ele>846.07</ele>
        <time>2017-09-29T13:35:29Z</time>
      </trkpt>
      <trkpt lat="44.4335" lon="3.9244">
        <ele>844.81</ele>
        <time>2017-09-29T13:35:47Z</time>
      </trkpt>
      <trkpt lat="44.43365" lon="3.92455">
        <ele>832.69</ele>
        <time>2017-09-29T13:36:40Z</time>
      </trkpt>
      <trkpt lat="44.43379" lon="3.92473">
        <ele>839.72</ele>
        <time>2017-09-29T13:36:51Z</time>
      </trkpt>
      <trkpt lat="44.43393" lon="3.92488">
        <ele>829.77</ele>
        <time>2017-09-29T13:37:22Z</time>
      </trkpt>
      <trkpt lat="44.43411" lon="3.92494">
        <ele>823.66</ele>
        <time>2017-09-29T13:37:43Z</time>
      </trkpt>
      <trkpt lat="44.43418" lon="3.92469">
        <ele>827.9</ele>
        <time>2017-09-29T13:38:15Z</time>
      </trkpt>
      <trkpt lat="44.43426" lon="3.92446">
        <ele>821.42</ele>
        <time>2017-09-29T13:38:30Z</time>
      </trkpt>
      <trkpt lat="44.43428" lon="3.92421">
        <ele>816.37</ele>
        <time>2017-09-29T13:38:53Z</time>
      </trkpt>
      <trkpt lat="44.43428" lon="3.92395">
        <ele>816.33</ele>
        <time>2017-09-29T13:39:10Z</time>
      </trkpt>
      <trkpt lat="44.43426" lon="3.92369">
        <ele>820.69</ele>
        <time>2017-09-29T13:39:31Z</time>
      </trkpt>
      <trkpt lat="44.43422" lon="3.92341">
        <ele>814.51</ele>
        <time>2017-09-29T13:39:53Z</time>
      </trkpt>
      <trkpt lat="44.4342" lon="3.92315">
        <ele>816.38</ele>
        <time>2017-09-29T13:40:07Z</time>
      </trkpt>
      <trkpt lat="44.43415" lon="3.9229">
        <ele>804.87</ele>
        <time>2017-09-29T13:40:27Z</time>
      </trkpt>
      <trkpt lat="44.43417" lon="3.92265">
        <ele>807.36</ele>
        <time>2017-09-29T13:40:40Z</time>
      </trkpt>
      <trkpt lat="44.43431" lon="3.92283">
        <ele>800.32</ele>
        <time>2017-09-29T13:41:09Z</time>
      </trkpt>
      <trkpt lat="44.43439" lon="3.92306">
        <ele>799.3</ele>
        <time>2017-09-29T13:41:25Z</time>
      </trkpt>
      <trkpt lat="44.43448" lon="3.92329">
        <ele>801.72</ele>
        <time>2017-09-29T13:41:41Z</time>
      </trkpt>
      <trkpt lat="44.43458" lon="3.92351">
        <ele>796.24</ele>
        <time>2017-09-29T13:41:58Z</time>
      </trkpt>
      <trkpt lat="44.43469" lon="3.9237">
        <ele>798.66</ele>
        <time>2017-09-29T13:42:24Z</time>
      </trkpt>
      <trkpt lat="44.43482" lon="3.92387">
        <ele>795.81</ele>
        <time>2017-09-29T13:42:45Z</time>
      </trkpt>
      <trkpt lat="44.43495" lon="3.92406">
        <ele>786.72</ele>
        <time>2017-09-29T13:43:04Z</time>
      </trkpt>
      <trkpt lat="44.43508" lon="3.92424">
        <ele>784.57</ele>
        <time>2017-09-29T13:43:25Z</time>
      </trkpt>
      <trkpt lat="44.43523" lon="3.9244">
        <ele>782.98</ele>
        <time>2017-09-29T13:43:41Z</time>
      </trkpt>
      <trkpt lat="44.43522" lon="3.92415">
        <ele>786.59</ele>
        <time>2017-09-29T13:44:29Z</time>
      </trkpt>
      <trkpt lat="44.43513" lon="3.92391">
        <ele>783.1</ele>
        <time>2017-09-29T13:44:57Z</time>
      </trkpt>
      <trkpt lat="44.43506" lon="3.92365">
        <ele>779.97</ele>
        <time>2017-09-29T13:45:07Z</time>
      </trkpt>
      <trkpt lat="44.43508" lon="3.92339">
        <ele>787.78</ele>
        <time>2017-09-29T13:45:20Z</time>
      </trkpt>
      <trkpt lat="44.43498" lon="3.92315">
        <ele>787.77</ele>
        <time>2017-09-29T13:45:40Z</time>
      </trkpt>
      <trkpt lat="44.43495" lon="3.92288">
        <ele>773.02</ele>
        <time>2017-09-29T13:45:59Z</time>
      </trkpt>
      <trkpt lat="44.4349" lon="3.92264">
        <ele>783.69</ele>
        <time>2017-09-29T13:46:16Z</time>
      </trkpt>
      <trkpt lat="44.4349" lon="3.92237">
        <ele>770.09</ele>
        <time>2017-09-29T13:46:29Z</time>
      </trkpt>
      <trkpt lat="44.43495" lon="3.92261">
        <ele>757.98</ele>
        <time>2017-09-29T13:47:24Z</time>
      </trkpt>
      <trkpt lat="44.43509" lon="3.92278">
        <ele>757.69</ele>
        <time>2017-09-29T13:47:36Z</time>
      </trkpt>
      <trkpt lat="44.43521" lon="3.92299">
        <ele>756.97</ele>
        <time>2017-09-29T13:48:02Z</time>
      </trkpt>
      <trkpt lat="44.43537" lon="3.92313">
        <ele>751.69</ele>
        <time>2017-09-29T13:48:16Z</time>
      </trkpt>
      <trkpt lat="44.43553" lon="3.92327">
        <ele>748.55</ele>
        <time>2017-09-29T13:48:32Z</time>
      </trkpt>
      <trkpt lat="44.43565" lon="3.92346">
        <ele>751.39</ele>
        <time>2017-09-29T13:48:49Z</time>
      </trkpt>
      <trkpt lat="44.43581" lon="3.92359">
        <ele>753.7</ele>
        <time>2017-09-29T13:49:12Z</time>
      </trkpt>
      <trkpt lat="44.43598" lon="3.92369">
        <ele>751.65</ele>
        <time>2017-09-29T13:49:30Z</time>
      </trkpt>
      <trkpt lat="44.43617" lon="3.92371">
        <ele>754.83</ele>
        <time>2017-09-29T13:49:44Z</time>
      </trkpt>
      <trkpt lat="44.43633" lon="3.92383">
        <ele>739.57</ele>
        <time>2017-09-29T13:50:00Z</time>
      </trkpt>
      <trkpt lat="44.43651" lon="3.92395">
        <ele>736.2</ele>
        <time>2017-09-29T13:50:23Z</time>
      </trkpt>
      <trkpt lat="44.43655" lon="3.92421">
        <ele>732.78</ele>
        <time>2017-09-29T13:51:23Z</time>
      </trkpt>
      <trkpt lat="44.43658" lon="3.92449">
        <ele>736</ele>
        <time>2017-09-29T13:51:44Z</time>
      </trkpt>
      <trkpt lat="44.43666" lon="3.92472">
        <ele>738.01</ele>
        <time>2017-09-29T13:52:08Z</time>
      </trkpt>
      <trkpt lat="44.43657" lon="3.92498">
        <ele>728.69</ele>
        <time>2017-09-29T13:52:24Z</time>
      </trkpt>
      <trkpt lat="44.43652" lon="3.92523">
        <ele>739.57</ele>
        <time>2017-09-29T13:53:18Z</time>
      </trkpt>
      <trkpt lat="44.4365" lon="3.92549">
        <ele>744.24</ele>
        <time>2017-09-29T13:53:43Z</time>
      </trkpt>
      <trkpt lat="44.43635" lon="3.92566">
        <ele>742.35</ele>
        <time>2017-09-29T13:54:06Z</time>
      </trkpt>
      <trkpt lat="44.43625" lon="3.92588">
        <ele>744.46</ele>
        <time>2017-09-29T13:54:28Z</time>
      </trkpt>
      <trkpt lat="44.43618" lon="3.92612">
        <ele>748.66</ele>
        <time>2017-09-29T13:54:52Z</time>
      </trkpt>
      <trkpt lat="44.43608" lon="3.92634">
        <ele>753.88</ele>
        <time>2017-09-29T13:55:16Z</time>
      </trkpt>
      <trkpt lat="44.43594" lon="3.92651">
        <ele>755.06</ele>
        <time>2017-09-29T13:55:38Z</time>
      </trkpt>
      <trkpt lat="44.43582" lon="3.92671">
        <ele>761.26</ele>
        <time>2017-09-29T13:56:00Z</time>
      </trkpt>
      <trkpt lat="44.43567" lon="3.92686">
        <ele>762.81</ele>
        <time>2017-09-29T13:57:16Z</time>
      </trkpt>
      <trkpt lat="44.43548" lon="3.92692">
        <ele>787.31</ele>
        <time>2017-09-29T13:57:38Z</time>
      </trkpt>
      <trkpt lat="44.43535" lon="3.9271">
        <ele>768.39</ele>
        <time>2017-09-29T13:57:52Z</time>
      </trkpt>
      <trkpt lat="44.4352" lon="3.92723">
        <ele>766.1</ele>
        <time>2017-09-29T13:58:14Z</time>
      </trkpt>
      <trkpt lat="44.43504" lon="3.9274">
        <ele>767.66</ele>
        <time>2017-09-29T13:58:29Z</time>
      </trkpt>
      <trkpt lat="44.43489" lon="3.92752">
        <ele>761.11</ele>
        <time>2017-09-29T13:58:46Z</time>
      </trkpt>
      <trkpt lat="44.43471" lon="3.9276">
        <ele>757.03</ele>
        <time>2017-09-29T13:59:03Z</time>
      </trkpt>
      <trkpt lat="44.43457" lon="3.92779">
        <ele>755.21</ele>
        <time>2017-09-29T13:59:20Z</time>
      </trkpt>
      <trkpt lat="44.4344" lon="3.92787">
        <ele>755.28</ele>
        <time>2017-09-29T13:59:37Z</time>
      </trkpt>
      <trkpt lat="44.43427" lon="3.92806">
        <ele>747.66</ele>
        <time>2017-09-29T13:59:53Z</time>
      </trkpt>
      <trkpt lat="44.43409" lon="3.92809">
        <ele>747.02</ele>
        <time>2017-09-29T14:00:13Z</time>
      </trkpt>
      <trkpt lat="44.43392" lon="3.928">
        <ele>743.1</ele>
        <time>2017-09-29T14:00:28Z</time>
      </trkpt>
      <trkpt lat="44.43375" lon="3.92811">
        <ele>746.69</ele>
        <time>2017-09-29T14:00:45Z</time>
      </trkpt>
      <trkpt lat="44.43381" lon="3.92835">
        <ele>742.1</ele>
        <time>2017-09-29T14:01:12Z</time>
      </trkpt>
      <trkpt lat="44.434" lon="3.92835">
        <ele>739.82</ele>
        <time>2017-09-29T14:01:38Z</time>
      </trkpt>
      <trkpt lat="44.43415" lon="3.92847">
        <ele>728.5</ele>
        <time>2017-09-29T14:02:00Z</time>
      </trkpt>
      <trkpt lat="44.43435" lon="3.92853">
        <ele>732.27</ele>
        <time>2017-09-29T14:02:22Z</time>
      </trkpt>
      <trkpt lat="44.43453" lon="3.92845">
        <ele>737.28</ele>
        <time>2017-09-29T14:02:39Z</time>
      </trkpt>
      <trkpt lat="44.43443" lon="3.92867">
        <ele>722.87</ele>
        <time>2017-09-29T14:03:27Z</time>
      </trkpt>
      <trkpt lat="44.43426" lon="3.92876">
        <ele>718.78</ele>
        <time>2017-09-29T14:03:39Z</time>
      </trkpt>
      <trkpt lat="44.43419" lon="3.929">
        <ele>720.75</ele>
        <time>2017-09-29T14:04:02Z</time>
      </trkpt>
      <trkpt lat="44.43435" lon="3.92914">
        <ele>713.72</ele>
        <time>2017-09-29T14:04:21Z</time>
      </trkpt>
      <trkpt lat="44.43452" lon="3.92924">
        <ele>712.66</ele>
        <time>2017-09-29T14:04:39Z</time>
      </trkpt>
      <trkpt lat="44.43472" lon="3.92925">
        <ele>711.74</ele>
        <time>2017-09-29T14:04:54Z</time>
      </trkpt>
      <trkpt lat="44.43491" lon="3.9292">
        <ele>715.02</ele>
        <time>2017-09-29T14:05:16Z</time>
      </trkpt>
      <trkpt lat="44.43508" lon="3.92909">
        <ele>710.96</ele>
        <time>2017-09-29T14:05:39Z</time>
      </trkpt>
      <trkpt lat="44.43526" lon="3.92914">
        <ele>712.84</ele>
        <time>2017-09-29T14:06:07Z</time>
      </trkpt>
      <trkpt lat="44.43537" lon="3.92935">
        <ele>708.62</ele>
        <time>2017-09-29T14:06:31Z</time>
      </trkpt>
      <trkpt lat="44.43545" lon="3.92959">
        <ele>696.82</ele>
        <time>2017-09-29T14:06:49Z</time>
      </trkpt>
      <trkpt lat="44.43554" lon="3.92982">
        <ele>688.25</ele>
        <time>2017-09-29T14:07:00Z</time>
      </trkpt>
      <trkpt lat="44.43571" lon="3.92995">
        <ele>683.72</ele>
        <time>2017-09-29T14:07:14Z</time>
      </trkpt>
      <trkpt lat="44.43585" lon="3.93013">
        <ele>686.48</ele>
        <time>2017-09-29T14:07:26Z</time>
      </trkpt>
      <trkpt lat="44.43568" lon="3.93018">
        <ele>690.56</ele>
        <time>2017-09-29T14:15:03Z</time>
      </trkpt>
      <trkpt lat="44.4355" lon="3.93019">
        <ele>689.69</ele>
        <time>2017-09-29T14:15:24Z</time>
      </trkpt>
      <trkpt lat="44.43532" lon="3.93016">
        <ele>693.49</ele>
        <time>2017-09-29T14:15:40Z</time>
      </trkpt>
      <trkpt lat="44.43519" lon="3.92995">
        <ele>681.05</ele>
        <time>2017-09-29T14:16:04Z</time>
      </trkpt>
      <trkpt lat="44.43501" lon="3.92994">
        <ele>680.37</ele>
        <time>2017-09-29T14:16:21Z</time>
      </trkpt>
      <trkpt lat="44.43487" lon="3.93012">
        <ele>676.68</ele>
        <time>2017-09-29T14:17:01Z</time>
      </trkpt>
      <trkpt lat="44.43472" lon="3.93027">
        <ele>679.14</ele>
        <time>2017-09-29T14:17:16Z</time>
      </trkpt>
      <trkpt lat="44.43463" lon="3.9305">
        <ele>668.48</ele>
        <time>2017-09-29T14:17:45Z</time>
      </trkpt>
      <trkpt lat="44.43448" lon="3.93065">
        <ele>666.21</ele>
        <time>2017-09-29T14:18:15Z</time>
      </trkpt>
      <trkpt lat="44.43439" lon="3.93088">
        <ele>660.99</ele>
        <time>2017-09-29T14:18:43Z</time>
      </trkpt>
      <trkpt lat="44.43423" lon="3.93101">
        <ele>662.63</ele>
        <time>2017-09-29T14:19:01Z</time>
      </trkpt>
      <trkpt lat="44.43404" lon="3.93095">
        <ele>655.63</ele>
        <time>2017-09-29T14:19:20Z</time>
      </trkpt>
      <trkpt lat="44.43385" lon="3.93089">
        <ele>653.99</ele>
        <time>2017-09-29T14:19:40Z</time>
      </trkpt>
      <trkpt lat="44.43369" lon="3.93102">
        <ele>651.92</ele>
        <time>2017-09-29T14:20:57Z</time>
      </trkpt>
    </trkseg>
  </trk>
</gpx>